Home > Products > Valid Products > TAF

000
FTUS46 KPQR 272053 AAA
TAFPDX
TAF AMD
KPDX 272053Z 2721/2818 VRB03KT P6SM -SHRA SCT020 BKN035 BKN050
     FM280100 VRB04KT P6SM VCSH SCT025 BKN050
     FM280500 09006KT P6SM BKN080
     FM281300 06008KT P6SM BKN250=



000
FTUS46 KPQR 271746
TAFPDX
TAF
KPDX 271746Z 2718/2818 17005KT P6SM -SHRA SCT015 BKN035
      TEMPO 2718/2721 P6SM -SHRAGS BKN025
     FM280100 VRB04KT P6SM VCSH SCT025 BKN050
     FM280500 09007KT P6SM BKN080=



000
FTUS46 KPQR 271746
TAFAST
TAF
KAST 271746Z 2718/2818 16006KT P6SM -SHRAGS FEW015 BKN025 OVC035
     FM280300 08009KT P6SM SCT025 OVC045
     FM280800 06005KT P6SM BKN080=



000
FTUS46 KPQR 271746
TAFSLE
TAF
KSLE 271746Z 2718/2818 22007KT P6SM -SHRA SCT035 BKN050
     FM272000 21008KT P6SM -SHRAGS SCT020 BKN035
     FM280300 VRB04KT P6SM VCSH SCT025 BKN050
     FM280700 36004KT P6SM BKN100=



000
FTUS46 KPQR 271746
TAFTTD
TAF
KTTD 271746Z 2718/2818 21005KT P6SM -SHRA SCT025 OVC035
     FM272000 VRB04KT P6SM -SHRAGS SCT020 OVC030
     FM280100 10007KT P6SM VCSH SCT035 BKN050
     FM280500 09011KT P6SM BKN090
     FM281600 09015G25KT P6SM BKN200=



000
FTUS46 KPQR 271746
TAFPDX
TAF
KPDX 271746Z 2718/2818 17005KT P6SM -SHRA SCT015 BKN035
      TEMPO 2718/2721 P6SM -SHRAGS BKN025
     FM280100 VRB04KT P6SM VCSH SCT025 BKN050
     FM280500 09007KT P6SM BKN080=



000
FTUS46 KPQR 271746
TAFHIO
TAF
KHIO 271746Z 2718/2818 00000KT P6SM VCSH FEW008 OVC050
     FM272000 VRB04KT P6SM -SHRAGS SCT025 OVC035
     FM280100 04003KT P6SM VCSH FEW008 BKN050
     FM280400 05006KT P6SM BKN100
     FM280800 06006KT P6SM BKN100=



000
FTUS46 KPQR 271746
TAFAST
TAF
KAST 271746Z 2718/2818 16006KT P6SM -SHRAGS FEW015 BKN025 OVC035
     FM280300 08009KT P6SM SCT025 OVC045
     FM280800 06005KT P6SM BKN080=



000
FTUS46 KPQR 271746
TAFONP
TAF
KONP 271746Z 2718/2818 29005KT P6SM -SHRAGS SCT015 BKN025
      TEMPO 2718/2720 29008G18KT
     FM280500 05005KT P6SM VCSH SCT015 BKN025
     FM281000 05009KT P6SM BKN080=



000
FTUS46 KPQR 271746
TAFHIO
TAF
KHIO 271746Z 2718/2818 00000KT P6SM VCSH FEW008 OVC050
     FM272000 VRB04KT P6SM -SHRAGS SCT025 OVC035
     FM280100 04003KT P6SM VCSH FEW008 BKN050
     FM280400 05006KT P6SM BKN100
     FM280800 06006KT P6SM BKN100=



000
FTUS46 KPQR 271746
TAFEUG
TAF
KEUG 271746Z 2718/2818 21009KT P6SM -SHRA SCT025 BKN050 BKN100
     FM272000 22010KT P6SM -SHRAGS SCT020 BKN035
     FM280300 26006KT P6SM VCSH BKN020
     FM280800 01004KT P6SM OVC020
     FM281500 01008KT P6SM BKN200=



000
FTUS46 KPQR 271746
TAFEUG
TAF
KEUG 271746Z 2718/2818 21009KT P6SM -SHRA SCT025 BKN050 BKN100
     FM272000 22010KT P6SM -SHRAGS SCT020 BKN035
     FM280300 26006KT P6SM VCSH BKN020
     FM280800 01004KT P6SM OVC020
     FM281500 01008KT P6SM BKN200=



000
FTUS46 KPQR 271746
TAFONP
TAF
KONP 271746Z 2718/2818 29005KT P6SM -SHRAGS SCT015 BKN025
      TEMPO 2718/2720 29008G18KT
     FM280500 05005KT P6SM VCSH SCT015 BKN025
     FM281000 05009KT P6SM BKN080=



000
FTUS46 KPQR 271746
TAFSLE
TAF
KSLE 271746Z 2718/2818 22007KT P6SM -SHRA SCT035 BKN050
     FM272000 21008KT P6SM -SHRAGS SCT020 BKN035
     FM280300 VRB04KT P6SM VCSH SCT025 BKN050
     FM280700 36004KT P6SM BKN100=



000
FTUS46 KPQR 271746
TAFPDX
TAF
KPDX 271746Z 2718/2818 17005KT P6SM -SHRA SCT015 BKN035
      TEMPO 2718/2721 P6SM -SHRAGS BKN025
     FM280100 VRB04KT P6SM VCSH SCT025 BKN050
     FM280500 09007KT P6SM BKN080=



000
FTUS46 KPQR 271746
TAFHIO
TAF
KHIO 271746Z 2718/2818 00000KT P6SM VCSH FEW008 OVC050
     FM272000 VRB04KT P6SM -SHRAGS SCT025 OVC035
     FM280100 04003KT P6SM VCSH FEW008 BKN050
     FM280400 05006KT P6SM BKN100
     FM280800 06006KT P6SM BKN100=



000
FTUS46 KPQR 271746
TAFEUG
TAF
KEUG 271746Z 2718/2818 21009KT P6SM -SHRA SCT025 BKN050 BKN100
     FM272000 22010KT P6SM -SHRAGS SCT020 BKN035
     FM280300 26006KT P6SM VCSH BKN020
     FM280800 01004KT P6SM OVC020
     FM281500 01008KT P6SM BKN200=



000
FTUS46 KPQR 271746
TAFONP
TAF
KONP 271746Z 2718/2818 29005KT P6SM -SHRAGS SCT015 BKN025
      TEMPO 2718/2720 29008G18KT
     FM280500 05005KT P6SM VCSH SCT015 BKN025
     FM281000 05009KT P6SM BKN080=



000
FTUS46 KPQR 271746
TAFAST
TAF
KAST 271746Z 2718/2818 16006KT P6SM -SHRAGS FEW015 BKN025 OVC035
     FM280300 08009KT P6SM SCT025 OVC045
     FM280800 06005KT P6SM BKN080=



000
FTUS46 KPQR 271746
TAFTTD
TAF
KTTD 271746Z 2718/2818 21005KT P6SM -SHRA SCT025 OVC035
     FM272000 VRB04KT P6SM -SHRAGS SCT020 OVC030
     FM280100 10007KT P6SM VCSH SCT035 BKN050
     FM280500 09011KT P6SM BKN090
     FM281600 09015G25KT P6SM BKN200=



000
FTUS46 KPQR 271746
TAFTTD
TAF
KTTD 271746Z 2718/2818 21005KT P6SM -SHRA SCT025 OVC035
     FM272000 VRB04KT P6SM -SHRAGS SCT020 OVC030
     FM280100 10007KT P6SM VCSH SCT035 BKN050
     FM280500 09011KT P6SM BKN090
     FM281600 09015G25KT P6SM BKN200=



000
FTUS46 KPQR 271746
TAFAST
TAF
KAST 271746Z 2718/2818 16006KT P6SM -SHRAGS FEW015 BKN025 OVC035
     FM280300 08009KT P6SM SCT025 OVC045
     FM280800 06005KT P6SM BKN080=



000
FTUS46 KPQR 271746
TAFSLE
TAF
KSLE 271746Z 2718/2818 22007KT P6SM -SHRA SCT035 BKN050
     FM272000 21008KT P6SM -SHRAGS SCT020 BKN035
     FM280300 VRB04KT P6SM VCSH SCT025 BKN050
     FM280700 36004KT P6SM BKN100=



000
FTUS46 KPQR 271746
TAFTTD
TAF
KTTD 271746Z 2718/2818 21005KT P6SM -SHRA SCT025 OVC035
     FM272000 VRB04KT P6SM -SHRAGS SCT020 OVC030
     FM280100 10007KT P6SM VCSH SCT035 BKN050
     FM280500 09011KT P6SM BKN090
     FM281600 09015G25KT P6SM BKN200=



000
FTUS46 KPQR 271746
TAFHIO
TAF
KHIO 271746Z 2718/2818 00000KT P6SM VCSH FEW008 OVC050
     FM272000 VRB04KT P6SM -SHRAGS SCT025 OVC035
     FM280100 04003KT P6SM VCSH FEW008 BKN050
     FM280400 05006KT P6SM BKN100
     FM280800 06006KT P6SM BKN100=



000
FTUS46 KPQR 271746
TAFPDX
TAF
KPDX 271746Z 2718/2818 17005KT P6SM -SHRA SCT015 BKN035
      TEMPO 2718/2721 P6SM -SHRAGS BKN025
     FM280100 VRB04KT P6SM VCSH SCT025 BKN050
     FM280500 09007KT P6SM BKN080=



000
FTUS46 KPQR 271746
TAFSLE
TAF
KSLE 271746Z 2718/2818 22007KT P6SM -SHRA SCT035 BKN050
     FM272000 21008KT P6SM -SHRAGS SCT020 BKN035
     FM280300 VRB04KT P6SM VCSH SCT025 BKN050
     FM280700 36004KT P6SM BKN100=



000
FTUS46 KPQR 271746
TAFEUG
TAF
KEUG 271746Z 2718/2818 21009KT P6SM -SHRA SCT025 BKN050 BKN100
     FM272000 22010KT P6SM -SHRAGS SCT020 BKN035
     FM280300 26006KT P6SM VCSH BKN020
     FM280800 01004KT P6SM OVC020
     FM281500 01008KT P6SM BKN200=



000
FTUS46 KPQR 271746
TAFONP
TAF
KONP 271746Z 2718/2818 29005KT P6SM -SHRAGS SCT015 BKN025
      TEMPO 2718/2720 29008G18KT
     FM280500 05005KT P6SM VCSH SCT015 BKN025
     FM281000 05009KT P6SM BKN080=



000
FTUS46 KPQR 271451 AAB
TAFPDX
TAF AMD
KPDX 271451Z 2715/2812 18005KT P6SM -SHRA FEW008 SCT025 OVC050
     FM271700 19008KT P6SM -SHRA BKN025 OVC035
     FM271900 15007KT P6SM -SHRAGS SCT020 OVC030
     FM280000 09009KT P6SM VCSH SCT025 BKN035
     FM280300 09009KT P6SM BKN050
     FM280800 09009KT P6SM BKN100=



000
FTUS46 KPQR 271451 AAB
TAFPDX
TAF AMD
KPDX 271451Z 2715/2812 18005KT P6SM -SHRA FEW008 SCT025 OVC050
     FM271700 19008KT P6SM -SHRA BKN025 OVC035
     FM271900 15007KT P6SM -SHRAGS SCT020 OVC030
     FM280000 09009KT P6SM VCSH SCT025 BKN035
     FM280300 09009KT P6SM BKN050
     FM280800 09009KT P6SM BKN100=



000
FTUS46 KPQR 271451 AAB
TAFPDX
TAF AMD
KPDX 271451Z 2715/2812 18005KT P6SM -SHRA FEW008 SCT025 OVC050
     FM271700 19008KT P6SM -SHRA BKN025 OVC035
     FM271900 15007KT P6SM -SHRAGS SCT020 OVC030
     FM280000 09009KT P6SM VCSH SCT025 BKN035
     FM280300 09009KT P6SM BKN050
     FM280800 09009KT P6SM BKN100=



000
FTUS46 KPQR 271451 AAB
TAFPDX
TAF AMD
KPDX 271451Z 2715/2812 18005KT P6SM -SHRA FEW008 SCT025 OVC050
     FM271700 19008KT P6SM -SHRA BKN025 OVC035
     FM271900 15007KT P6SM -SHRAGS SCT020 OVC030
     FM280000 09009KT P6SM VCSH SCT025 BKN035
     FM280300 09009KT P6SM BKN050
     FM280800 09009KT P6SM BKN100=



000
FTUS46 KPQR 271306 AAB
TAFSLE
TAF AMD
KSLE 271306Z 2713/2812 20006KT P6SM -SHRA SCT020 BKN035 OVC045
     FM271800 19007KT P6SM -SHRAGS SCT020 OVC030
     FM280300 36006KT P6SM VCSH SCT025 BKN035
     FM280700 09012KT P6SM BKN050
     FM281000 02005KT P6SM BKN100=



000
FTUS46 KPQR 271306 AAB
TAFSLE
TAF AMD
KSLE 271306Z 2713/2812 20006KT P6SM -SHRA SCT020 BKN035 OVC045
     FM271800 19007KT P6SM -SHRAGS SCT020 OVC030
     FM280300 36006KT P6SM VCSH SCT025 BKN035
     FM280700 09012KT P6SM BKN050
     FM281000 02005KT P6SM BKN100=



000
FTUS46 KPQR 271306 AAB
TAFSLE
TAF AMD
KSLE 271306Z 2713/2812 20006KT P6SM -SHRA SCT020 BKN035 OVC045
     FM271800 19007KT P6SM -SHRAGS SCT020 OVC030
     FM280300 36006KT P6SM VCSH SCT025 BKN035
     FM280700 09012KT P6SM BKN050
     FM281000 02005KT P6SM BKN100=



000
FTUS46 KPQR 271305 AAA
TAFEUG
TAF AMD
KEUG 271305Z 2713/2812 23005KT P6SM -SHRA SCT025 OVC035
     FM271500 18006KT P6SM -SHRA FEW015 BKN025 OVC035
     FM271800 19007KT P6SM -SHRAGS SCT020 OVC030
     FM280400 36006KT P6SM VCSH SCT025 BKN035
     FM280800 09012KT P6SM BKN050
     FM281100 02005KT P6SM BKN100=



000
FTUS46 KPQR 271305 AAA
TAFEUG
TAF AMD
KEUG 271305Z 2713/2812 23005KT P6SM -SHRA SCT025 OVC035
     FM271500 18006KT P6SM -SHRA FEW015 BKN025 OVC035
     FM271800 19007KT P6SM -SHRAGS SCT020 OVC030
     FM280400 36006KT P6SM VCSH SCT025 BKN035
     FM280800 09012KT P6SM BKN050
     FM281100 02005KT P6SM BKN100=



000
FTUS46 KPQR 271305 AAA
TAFEUG
TAF AMD
KEUG 271305Z 2713/2812 23005KT P6SM -SHRA SCT025 OVC035
     FM271500 18006KT P6SM -SHRA FEW015 BKN025 OVC035
     FM271800 19007KT P6SM -SHRAGS SCT020 OVC030
     FM280400 36006KT P6SM VCSH SCT025 BKN035
     FM280800 09012KT P6SM BKN050
     FM281100 02005KT P6SM BKN100=



000
FTUS46 KPQR 271304 AAA
TAFPDX
TAF AMD
KPDX 271304Z 2713/2812 20008KT P6SM -SHRA FEW008 SCT025 OVC050
     FM271600 19008KT P6SM -SHRA BKN025 OVC035
     FM271900 15007KT P6SM -SHRAGS SCT020 OVC030
     FM280000 09009KT P6SM VCSH SCT025 BKN035
     FM280300 09009KT P6SM BKN050
     FM280800 09009KT P6SM BKN100=



000
FTUS46 KPQR 271304 AAA
TAFPDX
TAF AMD
KPDX 271304Z 2713/2812 20008KT P6SM -SHRA FEW008 SCT025 OVC050
     FM271600 19008KT P6SM -SHRA BKN025 OVC035
     FM271900 15007KT P6SM -SHRAGS SCT020 OVC030
     FM280000 09009KT P6SM VCSH SCT025 BKN035
     FM280300 09009KT P6SM BKN050
     FM280800 09009KT P6SM BKN100=



000
FTUS46 KPQR 271304 AAA
TAFPDX
TAF AMD
KPDX 271304Z 2713/2812 20008KT P6SM -SHRA FEW008 SCT025 OVC050
     FM271600 19008KT P6SM -SHRA BKN025 OVC035
     FM271900 15007KT P6SM -SHRAGS SCT020 OVC030
     FM280000 09009KT P6SM VCSH SCT025 BKN035
     FM280300 09009KT P6SM BKN050
     FM280800 09009KT P6SM BKN100=



000
FTUS46 KPQR 271302 AAB
TAFHIO
TAF AMD
KHIO 271302Z 2713/2812 17004KT P6SM -SHRA SCT008 SCT025 OVC050
      TEMPO 2713/2716 BKN025
     FM271600 17004KT P6SM -SHRA FEW008 BKN025 OVC035
     FM271900 15005KT P6SM -SHRAGS SCT025 OVC035
     FM280000 07007KT P6SM VCSH SCT025 BKN035
     FM280300 06006KT P6SM BKN050
     FM280800 06006KT P6SM BKN100=



000
FTUS46 KPQR 271302 AAB
TAFHIO
TAF AMD
KHIO 271302Z 2713/2812 17004KT P6SM -SHRA SCT008 SCT025 OVC050
      TEMPO 2713/2716 BKN025
     FM271600 17004KT P6SM -SHRA FEW008 BKN025 OVC035
     FM271900 15005KT P6SM -SHRAGS SCT025 OVC035
     FM280000 07007KT P6SM VCSH SCT025 BKN035
     FM280300 06006KT P6SM BKN050
     FM280800 06006KT P6SM BKN100=



000
FTUS46 KPQR 271302 AAB
TAFHIO
TAF AMD
KHIO 271302Z 2713/2812 17004KT P6SM -SHRA SCT008 SCT025 OVC050
      TEMPO 2713/2716 BKN025
     FM271600 17004KT P6SM -SHRA FEW008 BKN025 OVC035
     FM271900 15005KT P6SM -SHRAGS SCT025 OVC035
     FM280000 07007KT P6SM VCSH SCT025 BKN035
     FM280300 06006KT P6SM BKN050
     FM280800 06006KT P6SM BKN100=



000
FTUS46 KPQR 271227 AAA
TAFSLE
TAF AMD
KSLE 271227Z 2712/2812 16006KT P6SM -SHRA SCT015 BKN025 OVC035
      TEMPO 2712/2716 BKN015
     FM271800 19007KT P6SM -SHRAGS SCT020 OVC030
     FM280300 36006KT P6SM VCSH SCT025 BKN035
     FM280700 09012KT P6SM BKN050
     FM281000 02005KT P6SM BKN100=



000
FTUS46 KPQR 271227 AAA
TAFSLE
TAF AMD
KSLE 271227Z 2712/2812 16006KT P6SM -SHRA SCT015 BKN025 OVC035
      TEMPO 2712/2716 BKN015
     FM271800 19007KT P6SM -SHRAGS SCT020 OVC030
     FM280300 36006KT P6SM VCSH SCT025 BKN035
     FM280700 09012KT P6SM BKN050
     FM281000 02005KT P6SM BKN100=



000
FTUS46 KPQR 271226 AAA
TAFTTD
TAF AMD
KTTD 271226Z 2712/2812 16007KT 6SM -SHRA BR SCT008 BKN012 OVC025
     FM271500 19005KT P6SM -SHRA SCT008 BKN018 OVC025
     FM271900 15007KT P6SM -SHRAGS SCT020 OVC030
     FM280000 09015KT P6SM VCSH SCT025 BKN035
     FM280300 09012KT P6SM BKN050
     FM280800 09009KT P6SM BKN100=



000
FTUS46 KPQR 271226 AAA
TAFTTD
TAF AMD
KTTD 271226Z 2712/2812 16007KT 6SM -SHRA BR SCT008 BKN012 OVC025
     FM271500 19005KT P6SM -SHRA SCT008 BKN018 OVC025
     FM271900 15007KT P6SM -SHRAGS SCT020 OVC030
     FM280000 09015KT P6SM VCSH SCT025 BKN035
     FM280300 09012KT P6SM BKN050
     FM280800 09009KT P6SM BKN100=



000
FTUS46 KPQR 271225 AAA
TAFHIO
TAF AMD
KHIO 271225Z 2712/2812 17004KT P6SM -SHRA SCT008 BKN012 OVC020
      TEMPO 2712/2716 2SM BR BKN006
     FM271600 17004KT P6SM -SHRA SCT008 BKN018 OVC025
     FM271900 15005KT P6SM -SHRAGS SCT020 OVC030
     FM280000 07007KT P6SM VCSH SCT025 BKN035
     FM280300 06006KT P6SM BKN050
     FM280800 06006KT P6SM BKN100=



000
FTUS46 KPQR 271225 AAA
TAFHIO
TAF AMD
KHIO 271225Z 2712/2812 17004KT P6SM -SHRA SCT008 BKN012 OVC020
      TEMPO 2712/2716 2SM BR BKN006
     FM271600 17004KT P6SM -SHRA SCT008 BKN018 OVC025
     FM271900 15005KT P6SM -SHRAGS SCT020 OVC030
     FM280000 07007KT P6SM VCSH SCT025 BKN035
     FM280300 06006KT P6SM BKN050
     FM280800 06006KT P6SM BKN100=



000
FTUS46 KPQR 271132
TAFTTD
TAF
KTTD 271132Z 2712/2812 16007KT 6SM -SHRA BR SCT008 BKN012 OVC025
      TEMPO 2712/2713 3SM RA BR BKN008 OVC020
     FM271500 19005KT P6SM -SHRA SCT008 BKN018 OVC025
     FM271900 15007KT P6SM -SHRAGS SCT020 OVC030
     FM280000 09015KT P6SM VCSH SCT025 BKN035
     FM280300 09012KT P6SM BKN050
     FM280800 09009KT P6SM BKN100=



000
FTUS46 KPQR 271132
TAFPDX
TAF
KPDX 271132Z 2712/2812 20008KT 6SM -SHRA BR SCT008 BKN012 OVC020
     FM271500 19008KT P6SM -SHRA SCT008 BKN018 OVC025
     FM271900 15007KT P6SM -SHRAGS SCT020 OVC030
     FM280000 09009KT P6SM VCSH SCT025 BKN035
     FM280300 09009KT P6SM BKN050
     FM280800 09009KT P6SM BKN100=



000
FTUS46 KPQR 271132
TAFEUG
TAF
KEUG 271132Z 2712/2812 23005KT P6SM -RA SCT015 BKN025 OVC035
     FM271400 18006KT P6SM -SHRA FEW015 BKN025 OVC035
     FM271800 19007KT P6SM -SHRAGS SCT020 OVC030
     FM280400 36006KT P6SM VCSH SCT025 BKN035
     FM280800 09012KT P6SM BKN050
     FM281100 02005KT P6SM BKN100=



000
FTUS46 KPQR 271132
TAFSLE
TAF
KSLE 271132Z 2712/2812 20006KT P6SM -SHRA FEW015 BKN025 OVC035
     FM271400 18008KT P6SM -SHRA FEW015 BKN025 OVC035
     FM271800 19007KT P6SM -SHRAGS SCT020 OVC030
     FM280300 36006KT P6SM VCSH SCT025 BKN035
     FM280700 09012KT P6SM BKN050
     FM281000 02005KT P6SM BKN100=



000
FTUS46 KPQR 271132
TAFONP
TAF
KONP 271132Z 2712/2812 29008G16KT 6SM -SHRA SCT012 BKN020 OVC035
     FM271500 29008G16KT 5SM -SHRAGS VCTS SCT008 OVC016CB
     FM280200 04010KT P6SM -SHRA SCT012 OVC025
     FM280400 06011KT P6SM VCSH SCT015 BKN025
     FM281000 06010KT P6SM BKN080=



000
FTUS46 KPQR 271132
TAFHIO
TAF
KHIO 271132Z 2712/2812 17004KT P6SM -SHRA SCT008 BKN012 OVC020
      TEMPO 2712/2715 4SM BR BKN008
     FM271500 17004KT P6SM -SHRA SCT008 BKN018 OVC025
     FM271900 15005KT P6SM -SHRAGS SCT020 OVC030
     FM280000 07007KT P6SM VCSH SCT025 BKN035
     FM280300 06006KT P6SM BKN050
     FM280800 06006KT P6SM BKN100=



000
FTUS46 KPQR 271132
TAFAST
TAF
KAST 271132Z 2712/2812 28007KT P6SM -SHRAGS FEW007 BKN018 OVC035
     FM272000 06010KT P6SM -SHRAGS VCTS SCT015 BKN025 OVC035CB
     FM280300 06010KT P6SM SCT025 OVC045
     FM280800 06010KT P6SM BKN080=



000
FTUS46 KPQR 271132
TAFEUG
TAF
KEUG 271132Z 2712/2812 23005KT P6SM -RA SCT015 BKN025 OVC035
     FM271400 18006KT P6SM -SHRA FEW015 BKN025 OVC035
     FM271800 19007KT P6SM -SHRAGS SCT020 OVC030
     FM280400 36006KT P6SM VCSH SCT025 BKN035
     FM280800 09012KT P6SM BKN050
     FM281100 02005KT P6SM BKN100=



000
FTUS46 KPQR 271132
TAFHIO
TAF
KHIO 271132Z 2712/2812 17004KT P6SM -SHRA SCT008 BKN012 OVC020
      TEMPO 2712/2715 4SM BR BKN008
     FM271500 17004KT P6SM -SHRA SCT008 BKN018 OVC025
     FM271900 15005KT P6SM -SHRAGS SCT020 OVC030
     FM280000 07007KT P6SM VCSH SCT025 BKN035
     FM280300 06006KT P6SM BKN050
     FM280800 06006KT P6SM BKN100=



000
FTUS46 KPQR 271132
TAFAST
TAF
KAST 271132Z 2712/2812 28007KT P6SM -SHRAGS FEW007 BKN018 OVC035
     FM272000 06010KT P6SM -SHRAGS VCTS SCT015 BKN025 OVC035CB
     FM280300 06010KT P6SM SCT025 OVC045
     FM280800 06010KT P6SM BKN080=



000
FTUS46 KPQR 271132
TAFSLE
TAF
KSLE 271132Z 2712/2812 20006KT P6SM -SHRA FEW015 BKN025 OVC035
     FM271400 18008KT P6SM -SHRA FEW015 BKN025 OVC035
     FM271800 19007KT P6SM -SHRAGS SCT020 OVC030
     FM280300 36006KT P6SM VCSH SCT025 BKN035
     FM280700 09012KT P6SM BKN050
     FM281000 02005KT P6SM BKN100=



000
FTUS46 KPQR 271132
TAFONP
TAF
KONP 271132Z 2712/2812 29008G16KT 6SM -SHRA SCT012 BKN020 OVC035
     FM271500 29008G16KT 5SM -SHRAGS VCTS SCT008 OVC016CB
     FM280200 04010KT P6SM -SHRA SCT012 OVC025
     FM280400 06011KT P6SM VCSH SCT015 BKN025
     FM281000 06010KT P6SM BKN080=



000
FTUS46 KPQR 271132
TAFTTD
TAF
KTTD 271132Z 2712/2812 16007KT 6SM -SHRA BR SCT008 BKN012 OVC025
      TEMPO 2712/2713 3SM RA BR BKN008 OVC020
     FM271500 19005KT P6SM -SHRA SCT008 BKN018 OVC025
     FM271900 15007KT P6SM -SHRAGS SCT020 OVC030
     FM280000 09015KT P6SM VCSH SCT025 BKN035
     FM280300 09012KT P6SM BKN050
     FM280800 09009KT P6SM BKN100=



000
FTUS46 KPQR 271132
TAFPDX
TAF
KPDX 271132Z 2712/2812 20008KT 6SM -SHRA BR SCT008 BKN012 OVC020
     FM271500 19008KT P6SM -SHRA SCT008 BKN018 OVC025
     FM271900 15007KT P6SM -SHRAGS SCT020 OVC030
     FM280000 09009KT P6SM VCSH SCT025 BKN035
     FM280300 09009KT P6SM BKN050
     FM280800 09009KT P6SM BKN100=



000
FTUS46 KPQR 271019 AAC
TAFTTD
TAF AMD
KTTD 271019Z 2710/2806 16007KT 4SM RA BR SCT008 BKN015 OVC025
      TEMPO 2710/2712 2SM +RA BR BKN008 OVC020
     FM271200 26010KT 5SM -SHRA BR SCT009 BKN020 OVC035
     FM271900 15005KT 6SM -RA OVC015=



000
FTUS46 KPQR 271019 AAC
TAFTTD
TAF AMD
KTTD 271019Z 2710/2806 16007KT 4SM RA BR SCT008 BKN015 OVC025
      TEMPO 2710/2712 2SM +RA BR BKN008 OVC020
     FM271200 26010KT 5SM -SHRA BR SCT009 BKN020 OVC035
     FM271900 15005KT 6SM -RA OVC015=



000
FTUS46 KPQR 271018 AAD
TAFONP
TAF AMD
KONP 271018Z 2710/2806 31014KT P6SM -SHRA SCT012 OVC030
     FM271200 29008G15KT 5SM -SHRA SCT008 OVC012
     FM271600 24013G19KT 3SM -RA BR OVC007=



000
FTUS46 KPQR 271013 AAC
TAFAST
TAF AMD
KAST 271013Z 2710/2806 28007KT 4SM -RA BR SCT007 BKN015 OVC025
     FM271500 23004KT 4SM -SHRA BR OVC015
     FM280000 06010KT P6SM OVC050=



000
FTUS46 KPQR 271013 AAC
TAFAST
TAF AMD
KAST 271013Z 2710/2806 28007KT 4SM -RA BR SCT007 BKN015 OVC025
     FM271500 23004KT 4SM -SHRA BR OVC015
     FM280000 06010KT P6SM OVC050=



000
FTUS46 KPQR 271012 AAD
TAFPDX
TAF AMD
KPDX 271012Z 2710/2806 15009KT P6SM -RA SCT008 BKN012 OVC025
      TEMPO 2710/2712 2SM +RA BR BKN008 OVC015
     FM271200 26011KT 6SM -SHRA BR SCT008 BKN015 OVC030
     FM271400 19008KT P6SM -SHRA SCT008 BKN015 OVC030
     FM271800 19007KT P6SM -RA OVC015=



000
FTUS46 KPQR 271012 AAD
TAFPDX
TAF AMD
KPDX 271012Z 2710/2806 15009KT P6SM -RA SCT008 BKN012 OVC025
      TEMPO 2710/2712 2SM +RA BR BKN008 OVC015
     FM271200 26011KT 6SM -SHRA BR SCT008 BKN015 OVC030
     FM271400 19008KT P6SM -SHRA SCT008 BKN015 OVC030
     FM271800 19007KT P6SM -RA OVC015=



000
FTUS46 KPQR 270751 AAC
TAFPDX
TAF AMD
KPDX 270751Z 2708/2806 13005KT P6SM -SHRA FEW009 BKN030 OVC045
     FM271000 19009KT 4SM RA BR SCT008 BKN012 OVC025
     FM271200 26011KT 4SM -SHRA BR SCT008 BKN020 OVC035
     FM271800 19007KT P6SM -RA OVC015=



000
FTUS46 KPQR 270750 AAB
TAFTTD
TAF AMD
KTTD 270750Z 2708/2806 00000KT P6SM -SHRA FEW010 BKN030 OVC045
     FM271000 16007KT 4SM RA BR SCT008 BKN015 OVC025
     FM271200 26010KT 5SM -SHRA BR SCT009 BKN020 OVC035
     FM271900 15005KT 6SM -RA OVC015=



000
FTUS46 KPQR 270749 AAB
TAFPDX
TAF AMD
KPDX 270749Z 2708/2806 13005KT P6SM -SHRA FEW009 BKN030 OVC045
     FM271000 19009KT 4SM RA BR SCT008 BKN012 OVC025
     FM271200 19007KT 4SM -SHRA BR SCT008 BKN020 OVC035
     FM271800 19007KT P6SM -RA OVC015=



000
FTUS46 KPQR 270749 AAB
TAFPDX
TAF AMD
KPDX 270749Z 2708/2806 13005KT P6SM -SHRA FEW009 BKN030 OVC045
     FM271000 19009KT 4SM RA BR SCT008 BKN012 OVC025
     FM271200 19007KT 4SM -SHRA BR SCT008 BKN020 OVC035
     FM271800 19007KT P6SM -RA OVC015=



000
FTUS46 KPQR 270747 AAC
TAFONP
TAF AMD
KONP 270747Z 2708/2806 31015KT 5SM BR BKN004 OVC012
      TEMPO 2708/2709 1SM RA BR OVC003
     FM270900 25008G15KT 5SM -SHRA OVC009
     FM272000 24013G19KT 2SM -RA BR OVC007=



000
FTUS46 KPQR 270747 AAC
TAFONP
TAF AMD
KONP 270747Z 2708/2806 31015KT 5SM BR BKN004 OVC012
      TEMPO 2708/2709 1SM RA BR OVC003
     FM270900 25008G15KT 5SM -SHRA OVC009
     FM272000 24013G19KT 2SM -RA BR OVC007=



000
FTUS46 KPQR 270746 AAB
TAFAST
TAF AMD
KAST 270746Z 2708/2806 14005KT P6SM -RA FEW008 BKN015 OVC025
      TEMPO 2708/2709 2SM RA BR SCT004 BKN009 OVC015
     FM270900 25007KT 6SM -SHRA BR BKN007 BKN015
     FM271500 23004KT 4SM -SHRA BR OVC015
     FM280000 06010KT P6SM OVC050=



000
FTUS46 KPQR 270746 AAB
TAFAST
TAF AMD
KAST 270746Z 2708/2806 14005KT P6SM -RA FEW008 BKN015 OVC025
      TEMPO 2708/2709 2SM RA BR SCT004 BKN009 OVC015
     FM270900 25007KT 6SM -SHRA BR BKN007 BKN015
     FM271500 23004KT 4SM -SHRA BR OVC015
     FM280000 06010KT P6SM OVC050=



000
FTUS46 KPQR 270717 AAA
TAFAST
TAF AMD
KAST 270717Z 2707/2806 14005KT P6SM -RA FEW008 BKN015 OVC025
     FM271000 25007KT 3SM -RA BR BKN007 BKN015
     FM271500 23004KT 4SM -RA BR OVC015
     FM280000 06010KT P6SM OVC050=



000
FTUS46 KPQR 270717 AAA
TAFAST
TAF AMD
KAST 270717Z 2707/2806 14005KT P6SM -RA FEW008 BKN015 OVC025
     FM271000 25007KT 3SM -RA BR BKN007 BKN015
     FM271500 23004KT 4SM -RA BR OVC015
     FM280000 06010KT P6SM OVC050=



000
FTUS46 KPQR 270717 AAA
TAFAST
TAF AMD
KAST 270717Z 2707/2806 14005KT P6SM -RA FEW008 BKN015 OVC025
     FM271000 25007KT 3SM -RA BR BKN007 BKN015
     FM271500 23004KT 4SM -RA BR OVC015
     FM280000 06010KT P6SM OVC050=



000
FTUS46 KPQR 270716 AAB
TAFEUG
TAF AMD
KEUG 270716Z 2707/2806 16007KT 6SM -RA BR SCT015 OVC025
      TEMPO 2707/2711 BKN015
     FM271100 18008KT 4SM -RA BR BKN010 OVC025
     FM271500 18007KT 4SM -RA BR BKN009 OVC020
     FM272200 21008KT 6SM -RA BR OVC015=



000
FTUS46 KPQR 270716 AAB
TAFEUG
TAF AMD
KEUG 270716Z 2707/2806 16007KT 6SM -RA BR SCT015 OVC025
      TEMPO 2707/2711 BKN015
     FM271100 18008KT 4SM -RA BR BKN010 OVC025
     FM271500 18007KT 4SM -RA BR BKN009 OVC020
     FM272200 21008KT 6SM -RA BR OVC015=



000
FTUS46 KPQR 270716 AAB
TAFEUG
TAF AMD
KEUG 270716Z 2707/2806 16007KT 6SM -RA BR SCT015 OVC025
      TEMPO 2707/2711 BKN015
     FM271100 18008KT 4SM -RA BR BKN010 OVC025
     FM271500 18007KT 4SM -RA BR BKN009 OVC020
     FM272200 21008KT 6SM -RA BR OVC015=



000
FTUS46 KPQR 270715 AAA
TAFEUG
TAF AMD
KEUG 270715Z 2707/2806 16007KT 4SM -RA BR SCT015 OVC025
      TEMPO 2707/2711 BKN015
     FM271100 18008KT 5SM -RA BR BKN010 OVC025
     FM271500 18007KT 4SM -RA BR BKN009 OVC020
     FM272200 21008KT 6SM -RA BR OVC015=



000
FTUS46 KPQR 270715 AAA
TAFEUG
TAF AMD
KEUG 270715Z 2707/2806 16007KT 4SM -RA BR SCT015 OVC025
      TEMPO 2707/2711 BKN015
     FM271100 18008KT 5SM -RA BR BKN010 OVC025
     FM271500 18007KT 4SM -RA BR BKN009 OVC020
     FM272200 21008KT 6SM -RA BR OVC015=



000
FTUS46 KPQR 270715 AAA
TAFEUG
TAF AMD
KEUG 270715Z 2707/2806 16007KT 4SM -RA BR SCT015 OVC025
      TEMPO 2707/2711 BKN015
     FM271100 18008KT 5SM -RA BR BKN010 OVC025
     FM271500 18007KT 4SM -RA BR BKN009 OVC020
     FM272200 21008KT 6SM -RA BR OVC015=



000
FTUS46 KPQR 270715 AAA
TAFEUG
TAF AMD
KEUG 270715Z 2707/2806 16007KT 4SM -RA BR SCT015 OVC025
      TEMPO 2707/2711 BKN015
     FM271100 18008KT 5SM -RA BR BKN010 OVC025
     FM271500 18007KT 4SM -RA BR BKN009 OVC020
     FM272200 21008KT 6SM -RA BR OVC015=



000
FTUS46 KPQR 270714 AAA
TAFSLE
TAF AMD
KSLE 270714Z 2707/2806 17006KT P6SM -SHRA FEW015 BKN035 OVC045
     FM271000 18008KT 5SM -RA BR OVC010
     FM271700 19007KT 4SM -RA BR OVC008
     FM280000 24006KT 6SM -RA OVC015=



000
FTUS46 KPQR 270714 AAA
TAFSLE
TAF AMD
KSLE 270714Z 2707/2806 17006KT P6SM -SHRA FEW015 BKN035 OVC045
     FM271000 18008KT 5SM -RA BR OVC010
     FM271700 19007KT 4SM -RA BR OVC008
     FM280000 24006KT 6SM -RA OVC015=



000
FTUS46 KPQR 270713 AAA
TAFTTD
TAF AMD
KTTD 270713Z 2707/2806 00000KT P6SM -SHRA FEW010 BKN035 OVC045
     FM271000 00000KT 4SM -RA BKN015 OVC025
     FM271200 20005KT 3SM -RA BR OVC009
     FM271900 15005KT 6SM -RA OVC015=



000
FTUS46 KPQR 270713 AAA
TAFTTD
TAF AMD
KTTD 270713Z 2707/2806 00000KT P6SM -SHRA FEW010 BKN035 OVC045
     FM271000 00000KT 4SM -RA BKN015 OVC025
     FM271200 20005KT 3SM -RA BR OVC009
     FM271900 15005KT 6SM -RA OVC015=



000
FTUS46 KPQR 270713 AAA
TAFTTD
TAF AMD
KTTD 270713Z 2707/2806 00000KT P6SM -SHRA FEW010 BKN035 OVC045
     FM271000 00000KT 4SM -RA BKN015 OVC025
     FM271200 20005KT 3SM -RA BR OVC009
     FM271900 15005KT 6SM -RA OVC015=



000
FTUS46 KPQR 270712 AAA
TAFPDX
TAF AMD
KPDX 270712Z 2707/2806 17005KT P6SM -SHRA FEW009 BKN035 OVC045
     FM271000 19006KT 4SM -RA SCT008 BKN012 OVC030
     FM271200 19007KT 4SM -RA BR OVC008
     FM271800 19007KT P6SM -RA OVC015=



000
FTUS46 KPQR 270712 AAA
TAFPDX
TAF AMD
KPDX 270712Z 2707/2806 17005KT P6SM -SHRA FEW009 BKN035 OVC045
     FM271000 19006KT 4SM -RA SCT008 BKN012 OVC030
     FM271200 19007KT 4SM -RA BR OVC008
     FM271800 19007KT P6SM -RA OVC015=



000
FTUS46 KPQR 270712 AAA
TAFPDX
TAF AMD
KPDX 270712Z 2707/2806 17005KT P6SM -SHRA FEW009 BKN035 OVC045
     FM271000 19006KT 4SM -RA SCT008 BKN012 OVC030
     FM271200 19007KT 4SM -RA BR OVC008
     FM271800 19007KT P6SM -RA OVC015=



000
FTUS46 KPQR 270712 AAA
TAFPDX
TAF AMD
KPDX 270712Z 2707/2806 17005KT P6SM -SHRA FEW009 BKN035 OVC045
     FM271000 19006KT 4SM -RA SCT008 BKN012 OVC030
     FM271200 19007KT 4SM -RA BR OVC008
     FM271800 19007KT P6SM -RA OVC015=



000
FTUS46 KPQR 270645 AAB
TAFONP
TAF AMD
KONP 270645Z 2707/2806 23007KT 5SM BR BKN004 OVC012
     FM271200 25008G15KT 4SM -RA OVC009
     FM272000 24013G19KT 2SM -RA BR OVC007=



000
FTUS46 KPQR 270645 AAB
TAFONP
TAF AMD
KONP 270645Z 2707/2806 23007KT 5SM BR BKN004 OVC012
     FM271200 25008G15KT 4SM -RA OVC009
     FM272000 24013G19KT 2SM -RA BR OVC007=



000
FTUS46 KPQR 270545 AAA
TAFONP
TAF AMD
KONP 270545Z 2706/2806 19007KT 5SM BR BKN007 OVC012
     FM271200 25008G15KT 4SM -RA OVC009
     FM272000 24013G19KT 2SM -RA BR OVC007=



000
FTUS46 KPQR 270545 AAA
TAFONP
TAF AMD
KONP 270545Z 2706/2806 19007KT 5SM BR BKN007 OVC012
     FM271200 25008G15KT 4SM -RA OVC009
     FM272000 24013G19KT 2SM -RA BR OVC007=



000
FTUS46 KPQR 270540
TAFSLE
TAF
KSLE 270540Z 2706/2806 18008KT P6SM -RA OVC010
     FM271700 19007KT 4SM -RA BR OVC008
     FM280000 24006KT 6SM -RA OVC015=



000
FTUS46 KPQR 270540
TAFEUG
TAF
KEUG 270540Z 2706/2806 16006KT 6SM -RA BR SCT025 BKN035
     FM270700 17007KT 4SM -RA BR SCT015 OVC025
     FM271500 18007KT 4SM -RA BR BKN009 OVC020
     FM272200 21008KT 6SM -RA BR OVC015=



000
FTUS46 KPQR 270540
TAFSLE
TAF
KSLE 270540Z 2706/2806 18008KT P6SM -RA OVC010
     FM271700 19007KT 4SM -RA BR OVC008
     FM280000 24006KT 6SM -RA OVC015=



000
FTUS46 KPQR 270540
TAFHIO
TAF
KHIO 270540Z 2706/2806 16004KT 3SM -RA BR BKN012 OVC030
     FM271400 18003KT 2SM -RA BR OVC007
     FM272200 13008KT 4SM -RA BR OVC015=



000
FTUS46 KPQR 270540
TAFPDX
TAF
KPDX 270540Z 2706/2806 19006KT 4SM -RA SCT008 BKN012 OVC030
     FM271500 19007KT 4SM -RA BR OVC008
     FM271800 19007KT P6SM -RA OVC015=



000
FTUS46 KPQR 270540
TAFEUG
TAF
KEUG 270540Z 2706/2806 16006KT 6SM -RA BR SCT025 BKN035
     FM270700 17007KT 4SM -RA BR SCT015 OVC025
     FM271500 18007KT 4SM -RA BR BKN009 OVC020
     FM272200 21008KT 6SM -RA BR OVC015=



000
FTUS46 KPQR 270540
TAFTTD
TAF
KTTD 270540Z 2706/2806 00000KT P6SM BKN015 OVC025
     FM271100 20005KT 3SM -RA BR OVC009
     FM271900 15005KT 6SM -RA OVC015=



000
FTUS46 KPQR 270540
TAFONP
TAF
KONP 270540Z 2706/2806 22011G18KT 5SM BR OVC004
     FM271200 25008G15KT 4SM -RA OVC009
     FM272000 24013G19KT 2SM -RA BR OVC007=



000
FTUS46 KPQR 270540
TAFAST
TAF
KAST 270540Z 2706/2806 25005KT P6SM -RA FEW008 BKN015 OVC025
     FM270700 25007KT 3SM -RA BR BKN007 BKN015
     FM271500 23004KT 4SM -RA BR OVC015
     FM280000 06010KT P6SM OVC050=



000
FTUS46 KPQR 270540
TAFPDX
TAF
KPDX 270540Z 2706/2806 19006KT 4SM -RA SCT008 BKN012 OVC030
     FM271500 19007KT 4SM -RA BR OVC008
     FM271800 19007KT P6SM -RA OVC015=



000
FTUS46 KPQR 270540
TAFHIO
TAF
KHIO 270540Z 2706/2806 16004KT 3SM -RA BR BKN012 OVC030
     FM271400 18003KT 2SM -RA BR OVC007
     FM272200 13008KT 4SM -RA BR OVC015=



000
FTUS46 KPQR 270540
TAFAST
TAF
KAST 270540Z 2706/2806 25005KT P6SM -RA FEW008 BKN015 OVC025
     FM270700 25007KT 3SM -RA BR BKN007 BKN015
     FM271500 23004KT 4SM -RA BR OVC015
     FM280000 06010KT P6SM OVC050=



000
FTUS46 KPQR 270540
TAFTTD
TAF
KTTD 270540Z 2706/2806 00000KT P6SM BKN015 OVC025
     FM271100 20005KT 3SM -RA BR OVC009
     FM271900 15005KT 6SM -RA OVC015=



000
FTUS46 KPQR 270540
TAFONP
TAF
KONP 270540Z 2706/2806 22011G18KT 5SM BR OVC004
     FM271200 25008G15KT 4SM -RA OVC009
     FM272000 24013G19KT 2SM -RA BR OVC007=



000
FTUS46 KPQR 270404 AAA
TAFHIO
TAF AMD
KHIO 270404Z 2704/2724 16005KT 5SM -RA BR SCT018 BKN035 BKN060
     FM270800 00000KT 3SM BR BKN015 OVC030
     FM271400 18003KT 2SM -RA BR OVC007
     FM272100 13005KT 4SM -RA BR OVC015=



000
FTUS46 KPQR 270404 AAA
TAFHIO
TAF AMD
KHIO 270404Z 2704/2724 16005KT 5SM -RA BR SCT018 BKN035 BKN060
     FM270800 00000KT 3SM BR BKN015 OVC030
     FM271400 18003KT 2SM -RA BR OVC007
     FM272100 13005KT 4SM -RA BR OVC015=



000
FTUS46 KPQR 270400 AAB
TAFPDX
TAF AMD
KPDX 270400Z 2704/2724 19006KT P6SM VCSH BKN011 BKN024
     FM271100 19007KT 5SM -RA BR OVC007
     FM272000 19007KT 6SM -RA OVC015=



000
FTUS46 KPQR 270400 AAB
TAFPDX
TAF AMD
KPDX 270400Z 2704/2724 19006KT P6SM VCSH BKN011 BKN024
     FM271100 19007KT 5SM -RA BR OVC007
     FM272000 19007KT 6SM -RA OVC015=



000
FTUS46 KPQR 270306 AAA
TAFSLE
TAF AMD
KSLE 270306Z 2703/2724 17007KT P6SM VCSH FEW009 BKN060 OVC080
     FM270500 18008KT 5SM -RA BR OVC009
     FM272100 19007KT 4SM -RA BR OVC015=



000
FTUS46 KPQR 270306 AAA
TAFSLE
TAF AMD
KSLE 270306Z 2703/2724 17007KT P6SM VCSH FEW009 BKN060 OVC080
     FM270500 18008KT 5SM -RA BR OVC009
     FM272100 19007KT 4SM -RA BR OVC015=



000
FTUS46 KPQR 270305 AAA
TAFPDX
TAF AMD
KPDX 270305Z 2703/2724 19006KT P6SM VCSH BKN024 OVC045
     FM271100 19007KT 5SM -RA BR OVC007
     FM272000 19007KT 6SM -RA OVC015=



000
FTUS46 KPQR 270305 AAA
TAFPDX
TAF AMD
KPDX 270305Z 2703/2724 19006KT P6SM VCSH BKN024 OVC045
     FM271100 19007KT 5SM -RA BR OVC007
     FM272000 19007KT 6SM -RA OVC015=



000
FTUS46 KPQR 270221 AAA
TAFAST
TAF AMD
KAST 270221Z 2702/2724 VRB03KT P6SM -RA SCT007 OVC050
     FM270400 25005KT P6SM -RA FEW008 BKN015 OVC025
     FM270700 25007KT 3SM -RA BR BKN007 BKN015
     FM271200 25005KT P6SM OVC025
     FM271500 23004KT 4SM BR OVC015=



000
FTUS46 KPQR 270221 AAA
TAFAST
TAF AMD
KAST 270221Z 2702/2724 VRB03KT P6SM -RA SCT007 OVC050
     FM270400 25005KT P6SM -RA FEW008 BKN015 OVC025
     FM270700 25007KT 3SM -RA BR BKN007 BKN015
     FM271200 25005KT P6SM OVC025
     FM271500 23004KT 4SM BR OVC015=



000
FTUS46 KPQR 270129 AAA
TAFEUG
TAF AMD
KEUG 270129Z 2701/2724 20006KT P6SM -RA BKN018 BKN050
      TEMPO 2701/2703 SCT018 BKN050
     FM271200 22005KT 4SM -RA BR OVC015
     FM271500 18007KT 4SM -RA BR OVC009
     FM272200 21008KT 6SM -RA BR OVC015=



000
FTUS46 KPQR 270129 AAA
TAFEUG
TAF AMD
KEUG 270129Z 2701/2724 20006KT P6SM -RA BKN018 BKN050
      TEMPO 2701/2703 SCT018 BKN050
     FM271200 22005KT 4SM -RA BR OVC015
     FM271500 18007KT 4SM -RA BR OVC009
     FM272200 21008KT 6SM -RA BR OVC015=



000
FTUS46 KPQR 270007 AAA
TAFONP
TAF AMD
KONP 270007Z 2700/2724 19010KT 3SM -RA BR SCT004 OVC015
     FM270600 22011G18KT 5SM BR OVC004
     FM271200 25008G15KT 4SM -RA OVC009
     FM272000 24013G19KT 2SM -RA BR OVC003=



000
FTUS46 KPQR 270007 AAA
TAFONP
TAF AMD
KONP 270007Z 2700/2724 19010KT 3SM -RA BR SCT004 OVC015
     FM270600 22011G18KT 5SM BR OVC004
     FM271200 25008G15KT 4SM -RA OVC009
     FM272000 24013G19KT 2SM -RA BR OVC003=



000
FTUS46 KPQR 262340
TAFAST
TAF
KAST 262340Z 2700/2724 22005KT 3SM -RA BR OVC010
     FM270200 23007KT 3SM -RA BR FEW008 OVC009
     FM270800 25005KT 3SM -RA BR FEW008 SCT015 OVC025
     FM271200 25005KT P6SM OVC025
     FM271500 23004KT 4SM BR OVC015=



000
FTUS46 KPQR 262340
TAFPDX
TAF
KPDX 262340Z 2700/2724 19006KT P6SM VCSH OVC019
     FM271100 19007KT 5SM -RA BR OVC009
     FM272000 19007KT 6SM -RA OVC015=



000
FTUS46 KPQR 262340
TAFONP
TAF
KONP 262340Z 2700/2724 19010KT 3SM -RA BR OVC004
     FM270600 22011G18KT 5SM BR OVC004
     FM271200 25008G15KT 4SM -RA OVC009
     FM272000 24013G19KT 2SM -RA BR OVC003=



000
FTUS46 KPQR 262340
TAFHIO
TAF
KHIO 262340Z 2700/2724 19005KT P6SM VCSH OVC019
     FM270200 19005KT 3SM -RA BR BKN018 OVC030
     FM271300 18003KT 4SM -RA BR OVC007
     FM272100 13005KT 4SM -RA BR OVC015=



000
FTUS46 KPQR 262340
TAFONP
TAF
KONP 262340Z 2700/2724 19010KT 3SM -RA BR OVC004
     FM270600 22011G18KT 5SM BR OVC004
     FM271200 25008G15KT 4SM -RA OVC009
     FM272000 24013G19KT 2SM -RA BR OVC003=



000
FTUS46 KPQR 262340
TAFAST
TAF
KAST 262340Z 2700/2724 22005KT 3SM -RA BR OVC010
     FM270200 23007KT 3SM -RA BR FEW008 OVC009
     FM270800 25005KT 3SM -RA BR FEW008 SCT015 OVC025
     FM271200 25005KT P6SM OVC025
     FM271500 23004KT 4SM BR OVC015=



000
FTUS46 KPQR 262340
TAFTTD
TAF
KTTD 262340Z 2700/2724 24005KT P6SM SCT008 BKN015 OVC025
     FM271100 20005KT 3SM -RA BR OVC009
     FM271900 15005KT 6SM -RA OVC015=



000
FTUS46 KPQR 262340
TAFEUG
TAF
KEUG 262340Z 2700/2724 20006KT P6SM -RA OVC019
     FM271200 22005KT 4SM -RA BR OVC015
     FM271500 18007KT 4SM -RA BR OVC009
     FM272200 21008KT 6SM -RA BR OVC015=



000
FTUS46 KPQR 262340
TAFSLE
TAF
KSLE 262340Z 2700/2724 17007KT P6SM VCSH OVC010
     FM270500 18008KT 5SM -RA BR OVC009
     FM272100 19007KT 4SM -RA BR OVC015=



000
FTUS46 KPQR 262340
TAFEUG
TAF
KEUG 262340Z 2700/2724 20006KT P6SM -RA OVC019
     FM271200 22005KT 4SM -RA BR OVC015
     FM271500 18007KT 4SM -RA BR OVC009
     FM272200 21008KT 6SM -RA BR OVC015=



000
FTUS46 KPQR 262340
TAFTTD
TAF
KTTD 262340Z 2700/2724 24005KT P6SM SCT008 BKN015 OVC025
     FM271100 20005KT 3SM -RA BR OVC009
     FM271900 15005KT 6SM -RA OVC015=



000
FTUS46 KPQR 262340
TAFSLE
TAF
KSLE 262340Z 2700/2724 17007KT P6SM VCSH OVC010
     FM270500 18008KT 5SM -RA BR OVC009
     FM272100 19007KT 4SM -RA BR OVC015=



000
FTUS46 KPQR 262340
TAFHIO
TAF
KHIO 262340Z 2700/2724 19005KT P6SM VCSH OVC019
     FM270200 19005KT 3SM -RA BR BKN018 OVC030
     FM271300 18003KT 4SM -RA BR OVC007
     FM272100 13005KT 4SM -RA BR OVC015=



000
FTUS46 KPQR 262340
TAFPDX
TAF
KPDX 262340Z 2700/2724 19006KT P6SM VCSH OVC019
     FM271100 19007KT 5SM -RA BR OVC009
     FM272000 19007KT 6SM -RA OVC015=



000
FTUS46 KPQR 262321 AAA
TAFONP
TAF AMD
KONP 262321Z 2623/2718 19010KT 2SM -RA BR OVC004
     FM270600 23007KT 5SM BR BKN007 BKN015 OVC025
     FM271200 25007KT 4SM -RA OVC025=



000
FTUS46 KPQR 262321 AAA
TAFONP
TAF AMD
KONP 262321Z 2623/2718 19010KT 2SM -RA BR OVC004
     FM270600 23007KT 5SM BR BKN007 BKN015 OVC025
     FM271200 25007KT 4SM -RA OVC025=



000
FTUS46 KPQR 262321 AAA
TAFONP
TAF AMD
KONP 262321Z 2623/2718 19010KT 2SM -RA BR OVC004
     FM270600 23007KT 5SM BR BKN007 BKN015 OVC025
     FM271200 25007KT 4SM -RA OVC025=



000
FTUS46 KPQR 262314 AAB
TAFTTD
TAF AMD
KTTD 262314Z 2623/2718 24005KT P6SM SCT008 BKN015 OVC025
     FM271000 20005KT 3SM -RA BR OVC009
     FM271300 18004KT 3SM -RA BR OVC015=



000
FTUS46 KPQR 262314 AAB
TAFTTD
TAF AMD
KTTD 262314Z 2623/2718 24005KT P6SM SCT008 BKN015 OVC025
     FM271000 20005KT 3SM -RA BR OVC009
     FM271300 18004KT 3SM -RA BR OVC015=



000
FTUS46 KPQR 262054 AAA
TAFPDX
TAF AMD
KPDX 262054Z 2621/2718 20010KT P6SM OVC015
     FM262200 19006KT 5SM -RA BR OVC019
     FM271200 18006KT 4SM -RA BR OVC015=



000
FTUS46 KPQR 262000 AAA
TAFHIO
TAF AMD
KHIO 262000Z 2620/2718 VRB02KT P6SM BKN012 OVC019
     FM262200 19005KT 5SM -RA BR OVC019
     FM270200 19005KT 3SM -RA BR BKN018 OVC030
     FM271600 18003KT 4SM -RA BR OVC007=



000
FTUS46 KPQR 262000 AAA
TAFHIO
TAF AMD
KHIO 262000Z 2620/2718 VRB02KT P6SM BKN012 OVC019
     FM262200 19005KT 5SM -RA BR OVC019
     FM270200 19005KT 3SM -RA BR BKN018 OVC030
     FM271600 18003KT 4SM -RA BR OVC007=



000
FTUS46 KPQR 261903 AAA
TAFTTD
TAF AMD
KTTD 261903Z 2619/2718 VRB03KT P6SM VCSH OVC015
     FM262000 24005KT P6SM SCT008 BKN015 OVC025
     FM270000 20005KT 3SM -RA BR OVC009
     FM271300 18004KT 3SM -RA BR OVC015=



000
FTUS46 KPQR 261903 AAA
TAFTTD
TAF AMD
KTTD 261903Z 2619/2718 VRB03KT P6SM VCSH OVC015
     FM262000 24005KT P6SM SCT008 BKN015 OVC025
     FM270000 20005KT 3SM -RA BR OVC009
     FM271300 18004KT 3SM -RA BR OVC015=



000
FTUS46 KPQR 261739
TAFTTD
TAF
KTTD 261739Z 2618/2718 VRB03KT 2SM -RA BKN008
     FM262000 24005KT P6SM SCT008 BKN015 OVC025
     FM270000 20005KT 3SM -RA BR OVC009
     FM271300 18004KT 3SM -RA BR OVC015=



000
FTUS46 KPQR 261739
TAFEUG
TAF
KEUG 261739Z 2618/2718 19009KT 5SM BR VCSH SCT008 BKN015 OVC025
     FM262000 19007KT P6SM VCSH OVC019
     FM270000 20006KT 5SM -RA BR OVC019
     FM271200 22005KT 4SM -RA BR OVC015=



000
FTUS46 KPQR 261739
TAFPDX
TAF
KPDX 261739Z 2618/2718 16004KT 5SM -RA BR OVC009
     FM261900 20006KT P6SM -RA OVC019
     FM262200 19006KT 5SM -RA BR OVC019
     FM271200 18006KT 4SM -RA BR OVC015=



000
FTUS46 KPQR 261739
TAFAST
TAF
KAST 261739Z 2618/2718 30003KT 1SM -RA BR BKN004 OVC008
     FM261900 22005KT 2SM -RA BR OVC009
     FM270200 23007KT 3SM -RA BR FEW008 OVC009
     FM270800 25005KT 3SM -RA BR FEW008 SCT015 OVC025
     FM271200 25005KT P6SM OVC025
     FM271500 23004KT 4SM BR OVC015=



000
FTUS46 KPQR 261739
TAFSLE
TAF
KSLE 261739Z 2618/2718 17010KT P6SM -RA OVC009
     FM262000 18010KT P6SM OVC019
     FM270000 17007KT 5SM -RA BR OVC009
     FM271300 18008KT 5SM -RA BR OVC015=



000
FTUS46 KPQR 261739
TAFHIO
TAF
KHIO 261739Z 2618/2718 VRB02KT P6SM -RA BKN008 BKN012 OVC019
     FM262200 19005KT 5SM -RA BR OVC019
     FM270200 19005KT 3SM -RA BR BKN018 OVC030
     FM271600 18003KT 4SM -RA BR OVC007=



000
FTUS46 KPQR 261739
TAFONP
TAF
KONP 261739Z 2618/2718 20006KT 2SM -RADZ BR OVC007
     FM262100 19007KT 2SM -RA BR OVC008
     FM270600 23007KT 5SM BR SCT007 BKN015 OVC025
     FM271200 25007KT 4SM -RA OVC025=



000
FTUS46 KPQR 261739
TAFEUG
TAF
KEUG 261739Z 2618/2718 19009KT 5SM BR VCSH SCT008 BKN015 OVC025
     FM262000 19007KT P6SM VCSH OVC019
     FM270000 20006KT 5SM -RA BR OVC019
     FM271200 22005KT 4SM -RA BR OVC015=



000
FTUS46 KPQR 261739
TAFTTD
TAF
KTTD 261739Z 2618/2718 VRB03KT 2SM -RA BKN008
     FM262000 24005KT P6SM SCT008 BKN015 OVC025
     FM270000 20005KT 3SM -RA BR OVC009
     FM271300 18004KT 3SM -RA BR OVC015=



000
FTUS46 KPQR 261739
TAFAST
TAF
KAST 261739Z 2618/2718 30003KT 1SM -RA BR BKN004 OVC008
     FM261900 22005KT 2SM -RA BR OVC009
     FM270200 23007KT 3SM -RA BR FEW008 OVC009
     FM270800 25005KT 3SM -RA BR FEW008 SCT015 OVC025
     FM271200 25005KT P6SM OVC025
     FM271500 23004KT 4SM BR OVC015=



000
FTUS46 KPQR 261739
TAFEUG
TAF
KEUG 261739Z 2618/2718 19009KT 5SM BR VCSH SCT008 BKN015 OVC025
     FM262000 19007KT P6SM VCSH OVC019
     FM270000 20006KT 5SM -RA BR OVC019
     FM271200 22005KT 4SM -RA BR OVC015=



000
FTUS46 KPQR 261739
TAFPDX
TAF
KPDX 261739Z 2618/2718 16004KT 5SM -RA BR OVC009
     FM261900 20006KT P6SM -RA OVC019
     FM262200 19006KT 5SM -RA BR OVC019
     FM271200 18006KT 4SM -RA BR OVC015=



000
FTUS46 KPQR 261739
TAFPDX
TAF
KPDX 261739Z 2618/2718 16004KT 5SM -RA BR OVC009
     FM261900 20006KT P6SM -RA OVC019
     FM262200 19006KT 5SM -RA BR OVC019
     FM271200 18006KT 4SM -RA BR OVC015=



000
FTUS46 KPQR 261739
TAFSLE
TAF
KSLE 261739Z 2618/2718 17010KT P6SM -RA OVC009
     FM262000 18010KT P6SM OVC019
     FM270000 17007KT 5SM -RA BR OVC009
     FM271300 18008KT 5SM -RA BR OVC015=



000
FTUS46 KPQR 261739
TAFONP
TAF
KONP 261739Z 2618/2718 20006KT 2SM -RADZ BR OVC007
     FM262100 19007KT 2SM -RA BR OVC008
     FM270600 23007KT 5SM BR SCT007 BKN015 OVC025
     FM271200 25007KT 4SM -RA OVC025=



000
FTUS46 KPQR 261739
TAFONP
TAF
KONP 261739Z 2618/2718 20006KT 2SM -RADZ BR OVC007
     FM262100 19007KT 2SM -RA BR OVC008
     FM270600 23007KT 5SM BR SCT007 BKN015 OVC025
     FM271200 25007KT 4SM -RA OVC025=



000
FTUS46 KPQR 261739
TAFSLE
TAF
KSLE 261739Z 2618/2718 17010KT P6SM -RA OVC009
     FM262000 18010KT P6SM OVC019
     FM270000 17007KT 5SM -RA BR OVC009
     FM271300 18008KT 5SM -RA BR OVC015=



000
FTUS46 KPQR 261739
TAFAST
TAF
KAST 261739Z 2618/2718 30003KT 1SM -RA BR BKN004 OVC008
     FM261900 22005KT 2SM -RA BR OVC009
     FM270200 23007KT 3SM -RA BR FEW008 OVC009
     FM270800 25005KT 3SM -RA BR FEW008 SCT015 OVC025
     FM271200 25005KT P6SM OVC025
     FM271500 23004KT 4SM BR OVC015=



000
FTUS46 KPQR 261739
TAFHIO
TAF
KHIO 261739Z 2618/2718 VRB02KT P6SM -RA BKN008 BKN012 OVC019
     FM262200 19005KT 5SM -RA BR OVC019
     FM270200 19005KT 3SM -RA BR BKN018 OVC030
     FM271600 18003KT 4SM -RA BR OVC007=



000
FTUS46 KPQR 261739
TAFHIO
TAF
KHIO 261739Z 2618/2718 VRB02KT P6SM -RA BKN008 BKN012 OVC019
     FM262200 19005KT 5SM -RA BR OVC019
     FM270200 19005KT 3SM -RA BR BKN018 OVC030
     FM271600 18003KT 4SM -RA BR OVC007=



000
FTUS46 KPQR 261739
TAFONP
TAF
KONP 261739Z 2618/2718 20006KT 2SM -RADZ BR OVC007
     FM262100 19007KT 2SM -RA BR OVC008
     FM270600 23007KT 5SM BR SCT007 BKN015 OVC025
     FM271200 25007KT 4SM -RA OVC025=



000
FTUS46 KPQR 261739
TAFTTD
TAF
KTTD 261739Z 2618/2718 VRB03KT 2SM -RA BKN008
     FM262000 24005KT P6SM SCT008 BKN015 OVC025
     FM270000 20005KT 3SM -RA BR OVC009
     FM271300 18004KT 3SM -RA BR OVC015=



000
FTUS46 KPQR 261739
TAFSLE
TAF
KSLE 261739Z 2618/2718 17010KT P6SM -RA OVC009
     FM262000 18010KT P6SM OVC019
     FM270000 17007KT 5SM -RA BR OVC009
     FM271300 18008KT 5SM -RA BR OVC015=



000
FTUS46 KPQR 261609 AAA
TAFHIO
TAF AMD
KHIO 261609Z 2616/2712 VRB03KT 3SM -SHRA BR SCT012 BKN020 OVC030
      TEMPO 2616/2617 OVC012
     FM261800 17004KT P6SM -SHRA SCT025 BKN035 OVC050
     FM262200 19005KT 5SM -RA BR BKN025 OVC040
     FM270200 19005KT 3SM -RA BR BKN018 OVC030=



000
FTUS46 KPQR 261609 AAA
TAFHIO
TAF AMD
KHIO 261609Z 2616/2712 VRB03KT 3SM -SHRA BR SCT012 BKN020 OVC030
      TEMPO 2616/2617 OVC012
     FM261800 17004KT P6SM -SHRA SCT025 BKN035 OVC050
     FM262200 19005KT 5SM -RA BR BKN025 OVC040
     FM270200 19005KT 3SM -RA BR BKN018 OVC030=



000
FTUS46 KPQR 261609 AAA
TAFHIO
TAF AMD
KHIO 261609Z 2616/2712 VRB03KT 3SM -SHRA BR SCT012 BKN020 OVC030
      TEMPO 2616/2617 OVC012
     FM261800 17004KT P6SM -SHRA SCT025 BKN035 OVC050
     FM262200 19005KT 5SM -RA BR BKN025 OVC040
     FM270200 19005KT 3SM -RA BR BKN018 OVC030=



000
FTUS46 KPQR 261606 AAC
TAFAST
TAF AMD
KAST 261606Z 2616/2712 22003KT 5SM BR SCT005 OVC015
      TEMPO 2616/2617 1 1/2SM -RA BR OVC002
     FM261700 25006KT 5SM -SHRA SCT006 BKN015 OVC040
     FM261900 22007KT 5SM -RA BR BKN020 OVC030
     FM270200 19007KT 3SM -RA BR FEW008 BKN015 OVC025=



000
FTUS46 KPQR 261606 AAC
TAFAST
TAF AMD
KAST 261606Z 2616/2712 22003KT 5SM BR SCT005 OVC015
      TEMPO 2616/2617 1 1/2SM -RA BR OVC002
     FM261700 25006KT 5SM -SHRA SCT006 BKN015 OVC040
     FM261900 22007KT 5SM -RA BR BKN020 OVC030
     FM270200 19007KT 3SM -RA BR FEW008 BKN015 OVC025=



000
FTUS46 KPQR 261606 AAC
TAFAST
TAF AMD
KAST 261606Z 2616/2712 22003KT 5SM BR SCT005 OVC015
      TEMPO 2616/2617 1 1/2SM -RA BR OVC002
     FM261700 25006KT 5SM -SHRA SCT006 BKN015 OVC040
     FM261900 22007KT 5SM -RA BR BKN020 OVC030
     FM270200 19007KT 3SM -RA BR FEW008 BKN015 OVC025=



000
FTUS46 KPQR 261606 AAB
TAFPDX
TAF AMD
KPDX 261606Z 2616/2712 16004KT P6SM FEW008 SCT015 OVC025
      TEMPO 2616/2617 3SM -RA BR BKN008 BKN015
     FM261700 16004KT 4SM -SHRA SCT015 BKN025 OVC035
     FM261900 17006KT P6SM -SHRA SCT025 BKN035 OVC050
     FM262200 19006KT 5SM -RA BR BKN025 OVC040
     FM270200 19006KT 3SM -RA BR BKN020 OVC035=



000
FTUS46 KPQR 261606 AAB
TAFPDX
TAF AMD
KPDX 261606Z 2616/2712 16004KT P6SM FEW008 SCT015 OVC025
      TEMPO 2616/2617 3SM -RA BR BKN008 BKN015
     FM261700 16004KT 4SM -SHRA SCT015 BKN025 OVC035
     FM261900 17006KT P6SM -SHRA SCT025 BKN035 OVC050
     FM262200 19006KT 5SM -RA BR BKN025 OVC040
     FM270200 19006KT 3SM -RA BR BKN020 OVC035=



000
FTUS46 KPQR 261606 AAB
TAFPDX
TAF AMD
KPDX 261606Z 2616/2712 16004KT P6SM FEW008 SCT015 OVC025
      TEMPO 2616/2617 3SM -RA BR BKN008 BKN015
     FM261700 16004KT 4SM -SHRA SCT015 BKN025 OVC035
     FM261900 17006KT P6SM -SHRA SCT025 BKN035 OVC050
     FM262200 19006KT 5SM -RA BR BKN025 OVC040
     FM270200 19006KT 3SM -RA BR BKN020 OVC035=



000
FTUS46 KPQR 261606 AAB
TAFPDX
TAF AMD
KPDX 261606Z 2616/2712 16004KT P6SM FEW008 SCT015 OVC025
      TEMPO 2616/2617 3SM -RA BR BKN008 BKN015
     FM261700 16004KT 4SM -SHRA SCT015 BKN025 OVC035
     FM261900 17006KT P6SM -SHRA SCT025 BKN035 OVC050
     FM262200 19006KT 5SM -RA BR BKN025 OVC040
     FM270200 19006KT 3SM -RA BR BKN020 OVC035=



000
FTUS46 KPQR 261606 AAC
TAFAST
TAF AMD
KAST 261606Z 2616/2712 22003KT 5SM BR SCT005 OVC015
      TEMPO 2616/2617 1 1/2SM -RA BR OVC002
     FM261700 25006KT 5SM -SHRA SCT006 BKN015 OVC040
     FM261900 22007KT 5SM -RA BR BKN020 OVC030
     FM270200 19007KT 3SM -RA BR FEW008 BKN015 OVC025=



000
FTUS46 KPQR 261451 AAA
TAFSLE
TAF AMD
KSLE 261451Z 2615/2712 16005KT P6SM VCSH FEW009 SCT025 OVC035
      TEMPO 2615/2618 5SM -RA BR BKN009
     FM262000 18008KT P6SM -RA SCT025 OVC035
     FM262200 19008KT 6SM -RA BR BKN025 OVC035
     FM270000 19006KT 5SM -RA BR BKN020 OVC035=



000
FTUS46 KPQR 261451 AAA
TAFSLE
TAF AMD
KSLE 261451Z 2615/2712 16005KT P6SM VCSH FEW009 SCT025 OVC035
      TEMPO 2615/2618 5SM -RA BR BKN009
     FM262000 18008KT P6SM -RA SCT025 OVC035
     FM262200 19008KT 6SM -RA BR BKN025 OVC035
     FM270000 19006KT 5SM -RA BR BKN020 OVC035=



000
FTUS46 KPQR 261451 AAA
TAFSLE
TAF AMD
KSLE 261451Z 2615/2712 16005KT P6SM VCSH FEW009 SCT025 OVC035
      TEMPO 2615/2618 5SM -RA BR BKN009
     FM262000 18008KT P6SM -RA SCT025 OVC035
     FM262200 19008KT 6SM -RA BR BKN025 OVC035
     FM270000 19006KT 5SM -RA BR BKN020 OVC035=



000
FTUS46 KPQR 261451 AAA
TAFSLE
TAF AMD
KSLE 261451Z 2615/2712 16005KT P6SM VCSH FEW009 SCT025 OVC035
      TEMPO 2615/2618 5SM -RA BR BKN009
     FM262000 18008KT P6SM -RA SCT025 OVC035
     FM262200 19008KT 6SM -RA BR BKN025 OVC035
     FM270000 19006KT 5SM -RA BR BKN020 OVC035=



000
FTUS46 KPQR 261411 AAB
TAFEUG
TAF AMD
KEUG 261411Z 2614/2712 19005KT P6SM BKN025 OVC035
      TEMPO 2614/2617 BKN018
     FM261700 19004KT P6SM VCSH SCT015 BKN025 OVC050
     FM262000 19005KT P6SM -RA SCT025 OVC040
     FM262300 19008KT 6SM -RA BR BKN025 OVC035
     FM270100 19006KT 5SM -RA BR BKN020 OVC035=



000
FTUS46 KPQR 261410 AAB
TAFAST
TAF AMD
KAST 261410Z 2614/2712 22003KT 5SM BR SCT005 OVC015
      TEMPO 2614/2617 1 1/2SM -RA BR OVC003
     FM261700 25006KT 5SM -SHRA SCT006 BKN015 OVC040
     FM261900 22007KT 5SM -RA BR BKN020 OVC030
     FM270200 19007KT 3SM -RA BR FEW008 BKN015 OVC025=



000
FTUS46 KPQR 261410 AAB
TAFAST
TAF AMD
KAST 261410Z 2614/2712 22003KT 5SM BR SCT005 OVC015
      TEMPO 2614/2617 1 1/2SM -RA BR OVC003
     FM261700 25006KT 5SM -SHRA SCT006 BKN015 OVC040
     FM261900 22007KT 5SM -RA BR BKN020 OVC030
     FM270200 19007KT 3SM -RA BR FEW008 BKN015 OVC025=



000
FTUS46 KPQR 261408 AAA
TAFPDX
TAF AMD
KPDX 261408Z 2614/2712 16004KT P6SM FEW008 SCT015 OVC025
      TEMPO 2614/2617 3SM BR FEW009 BKN015
     FM261700 16004KT 4SM -SHRA SCT015 BKN025 OVC035
     FM261900 17006KT P6SM -SHRA SCT025 BKN035 OVC050
     FM262200 19006KT 5SM -RA BR BKN025 OVC040
     FM270200 19006KT 3SM -RA BR BKN020 OVC035=



000
FTUS46 KPQR 261406 AAB
TAFTTD
TAF AMD
KTTD 261406Z 2614/2712 VRB03KT 4SM BR SCT008 BKN012 OVC020
      TEMPO 2614/2617 2SM -RA BR OVC007
     FM261700 VRB03KT 4SM -RA SCT008 BKN015 OVC025
     FM262200 19006KT 5SM -RA BR BKN025 OVC040
     FM270200 19006KT 3SM -RA BR BKN020 OVC035=



000
FTUS46 KPQR 261406 AAB
TAFTTD
TAF AMD
KTTD 261406Z 2614/2712 VRB03KT 4SM BR SCT008 BKN012 OVC020
      TEMPO 2614/2617 2SM -RA BR OVC007
     FM261700 VRB03KT 4SM -RA SCT008 BKN015 OVC025
     FM262200 19006KT 5SM -RA BR BKN025 OVC040
     FM270200 19006KT 3SM -RA BR BKN020 OVC035=



000
FTUS46 KPQR 261259 AAA
TAFEUG
TAF AMD
KEUG 261259Z 2613/2712 19005KT P6SM SCT025 OVC040
      TEMPO 2613/2616 BKN025
     FM261600 19004KT P6SM VCSH BKN035 OVC050
     FM262000 19005KT P6SM -RA SCT025 OVC040
     FM262300 19008KT 6SM -RA BR BKN025 OVC035
     FM270100 19006KT 5SM -RA BR BKN020 OVC035=



000
FTUS46 KPQR 261259 AAA
TAFEUG
TAF AMD
KEUG 261259Z 2613/2712 19005KT P6SM SCT025 OVC040
      TEMPO 2613/2616 BKN025
     FM261600 19004KT P6SM VCSH BKN035 OVC050
     FM262000 19005KT P6SM -RA SCT025 OVC040
     FM262300 19008KT 6SM -RA BR BKN025 OVC035
     FM270100 19006KT 5SM -RA BR BKN020 OVC035=



000
FTUS46 KPQR 261259 AAA
TAFEUG
TAF AMD
KEUG 261259Z 2613/2712 19005KT P6SM SCT025 OVC040
      TEMPO 2613/2616 BKN025
     FM261600 19004KT P6SM VCSH BKN035 OVC050
     FM262000 19005KT P6SM -RA SCT025 OVC040
     FM262300 19008KT 6SM -RA BR BKN025 OVC035
     FM270100 19006KT 5SM -RA BR BKN020 OVC035=



000
FTUS46 KPQR 261259 AAA
TAFEUG
TAF AMD
KEUG 261259Z 2613/2712 19005KT P6SM SCT025 OVC040
      TEMPO 2613/2616 BKN025
     FM261600 19004KT P6SM VCSH BKN035 OVC050
     FM262000 19005KT P6SM -RA SCT025 OVC040
     FM262300 19008KT 6SM -RA BR BKN025 OVC035
     FM270100 19006KT 5SM -RA BR BKN020 OVC035=



000
FTUS46 KPQR 261257 AAA
TAFAST
TAF AMD
KAST 261257Z 2613/2712 22006KT P6SM SCT012 OVC025
      TEMPO 2613/2616 3SM -RA BR SCT005 BKN009
     FM261600 25006KT P6SM -SHRA SCT012 BKN025 OVC040
     FM261900 22007KT 5SM -RA BR BKN020 OVC030
     FM270200 19007KT 3SM -RA BR FEW008 BKN015 OVC025=



000
FTUS46 KPQR 261257 AAA
TAFAST
TAF AMD
KAST 261257Z 2613/2712 22006KT P6SM SCT012 OVC025
      TEMPO 2613/2616 3SM -RA BR SCT005 BKN009
     FM261600 25006KT P6SM -SHRA SCT012 BKN025 OVC040
     FM261900 22007KT 5SM -RA BR BKN020 OVC030
     FM270200 19007KT 3SM -RA BR FEW008 BKN015 OVC025=



000
FTUS46 KPQR 261257 AAA
TAFAST
TAF AMD
KAST 261257Z 2613/2712 22006KT P6SM SCT012 OVC025
      TEMPO 2613/2616 3SM -RA BR SCT005 BKN009
     FM261600 25006KT P6SM -SHRA SCT012 BKN025 OVC040
     FM261900 22007KT 5SM -RA BR BKN020 OVC030
     FM270200 19007KT 3SM -RA BR FEW008 BKN015 OVC025=



000
FTUS46 KPQR 261256 AAA
TAFONP
TAF AMD
KONP 261256Z 2613/2712 22006KT 3SM -DZ BR OVC005
     FM261800 20006KT 3SM -RADZ BR OVC007
     FM262100 19007KT 3SM -RA BR OVC008
     FM270600 24006KT P6SM -SHRA SCT007 BKN015 OVC025=



000
FTUS46 KPQR 261256 AAA
TAFONP
TAF AMD
KONP 261256Z 2613/2712 22006KT 3SM -DZ BR OVC005
     FM261800 20006KT 3SM -RADZ BR OVC007
     FM262100 19007KT 3SM -RA BR OVC008
     FM270600 24006KT P6SM -SHRA SCT007 BKN015 OVC025=



000
FTUS46 KPQR 261256 AAA
TAFONP
TAF AMD
KONP 261256Z 2613/2712 22006KT 3SM -DZ BR OVC005
     FM261800 20006KT 3SM -RADZ BR OVC007
     FM262100 19007KT 3SM -RA BR OVC008
     FM270600 24006KT P6SM -SHRA SCT007 BKN015 OVC025=



000
FTUS46 KPQR 261256 AAA
TAFONP
TAF AMD
KONP 261256Z 2613/2712 22006KT 3SM -DZ BR OVC005
     FM261800 20006KT 3SM -RADZ BR OVC007
     FM262100 19007KT 3SM -RA BR OVC008
     FM270600 24006KT P6SM -SHRA SCT007 BKN015 OVC025=



000
FTUS46 KPQR 261255 AAA
TAFTTD
TAF AMD
KTTD 261255Z 2613/2712 VRB03KT 3SM -RA BR BKN012 OVC020
     FM261500 VRB03KT 4SM -RA SCT008 BKN015 OVC025
     FM261700 17006KT P6SM -SHRA SCT025 BKN030 OVC045
     FM262200 19006KT 5SM -RA BR BKN025 OVC040
     FM270200 19006KT 3SM -RA BR BKN020 OVC035=



000
FTUS46 KPQR 261255 AAA
TAFTTD
TAF AMD
KTTD 261255Z 2613/2712 VRB03KT 3SM -RA BR BKN012 OVC020
     FM261500 VRB03KT 4SM -RA SCT008 BKN015 OVC025
     FM261700 17006KT P6SM -SHRA SCT025 BKN030 OVC045
     FM262200 19006KT 5SM -RA BR BKN025 OVC040
     FM270200 19006KT 3SM -RA BR BKN020 OVC035=



000
FTUS46 KPQR 261255 AAA
TAFTTD
TAF AMD
KTTD 261255Z 2613/2712 VRB03KT 3SM -RA BR BKN012 OVC020
     FM261500 VRB03KT 4SM -RA SCT008 BKN015 OVC025
     FM261700 17006KT P6SM -SHRA SCT025 BKN030 OVC045
     FM262200 19006KT 5SM -RA BR BKN025 OVC040
     FM270200 19006KT 3SM -RA BR BKN020 OVC035=



000
FTUS46 KPQR 261255 AAA
TAFTTD
TAF AMD
KTTD 261255Z 2613/2712 VRB03KT 3SM -RA BR BKN012 OVC020
     FM261500 VRB03KT 4SM -RA SCT008 BKN015 OVC025
     FM261700 17006KT P6SM -SHRA SCT025 BKN030 OVC045
     FM262200 19006KT 5SM -RA BR BKN025 OVC040
     FM270200 19006KT 3SM -RA BR BKN020 OVC035=



000
FTUS46 KPQR 261137
TAFAST
TAF
KAST 261137Z 2612/2712 22006KT P6SM SCT018 OVC025
      TEMPO 2612/2615 3SM -RA BR SCT005 BKN015
     FM261600 25006KT P6SM -SHRA SCT012 BKN025 OVC040
     FM261900 22007KT 5SM -RA BR BKN020 OVC030
     FM270200 19007KT 3SM -RA BR FEW008 BKN015 OVC025=



000
FTUS46 KPQR 261137
TAFPDX
TAF
KPDX 261137Z 2612/2712 16004KT 6SM -SHRA BR SCT015 BKN025 OVC035
      TEMPO 2612/2616 3SM BR FEW009 BKN015
     FM261600 16004KT 4SM -SHRA SCT015 BKN025 OVC035
     FM261800 17006KT P6SM -SHRA SCT025 BKN035 OVC050
     FM262200 19006KT 5SM -RA BR BKN025 OVC040
     FM270200 19006KT 3SM -RA BR BKN020 OVC035=



000
FTUS46 KPQR 261137
TAFTTD
TAF
KTTD 261137Z 2612/2712 VRB03KT 3SM -RA BR BKN008 OVC020
     FM261500 VRB03KT 4SM -RA SCT008 BKN015 OVC025
     FM261700 17006KT P6SM -SHRA SCT025 BKN030 OVC045
     FM262200 19006KT 5SM -RA BR BKN025 OVC040
     FM270200 19006KT 3SM -RA BR BKN020 OVC035=



000
FTUS46 KPQR 261137
TAFSLE
TAF
KSLE 261137Z 2612/2712 15004KT P6SM VCSH SCT025 OVC035
     FM262000 18008KT P6SM -RA SCT025 OVC035
     FM262200 19008KT 6SM -RA BR BKN025 OVC035
     FM270000 19006KT 5SM -RA BR BKN020 OVC035=



000
FTUS46 KPQR 261137
TAFONP
TAF
KONP 261137Z 2612/2712 22006KT 2SM -DZ BR OVC008
     FM261800 20006KT 3SM -RADZ BR OVC008
     FM262100 19007KT 3SM -RA BR OVC008
     FM270600 24006KT P6SM -SHRA SCT007 BKN015 OVC025=



000
FTUS46 KPQR 261137
TAFHIO
TAF
KHIO 261137Z 2612/2712 VRB03KT 3SM BR SCT022 OVC040
      TEMPO 2612/2616 2SM -SHRA BR FEW009 BKN020 OVC035
     FM261600 VRB03KT 3SM -SHRA BR SCT012 BKN020 OVC030
     FM261800 17004KT P6SM -SHRA SCT025 BKN035 OVC050
     FM262200 19005KT 5SM -RA BR BKN025 OVC040
     FM270200 19005KT 3SM -RA BR BKN018 OVC030=



000
FTUS46 KPQR 261137
TAFEUG
TAF
KEUG 261137Z 2612/2712 19005KT P6SM SCT035 OVC070
     FM261600 19004KT P6SM VCSH BKN035 OVC050
     FM262000 19005KT P6SM -RA SCT025 OVC040
     FM262300 19008KT 6SM -RA BR BKN025 OVC035
     FM270100 19006KT 5SM -RA BR BKN020 OVC035=



000
FTUS46 KPQR 261137
TAFHIO
TAF
KHIO 261137Z 2612/2712 VRB03KT 3SM BR SCT022 OVC040
      TEMPO 2612/2616 2SM -SHRA BR FEW009 BKN020 OVC035
     FM261600 VRB03KT 3SM -SHRA BR SCT012 BKN020 OVC030
     FM261800 17004KT P6SM -SHRA SCT025 BKN035 OVC050
     FM262200 19005KT 5SM -RA BR BKN025 OVC040
     FM270200 19005KT 3SM -RA BR BKN018 OVC030=



000
FTUS46 KPQR 261137
TAFSLE
TAF
KSLE 261137Z 2612/2712 15004KT P6SM VCSH SCT025 OVC035
     FM262000 18008KT P6SM -RA SCT025 OVC035
     FM262200 19008KT 6SM -RA BR BKN025 OVC035
     FM270000 19006KT 5SM -RA BR BKN020 OVC035=



000
FTUS46 KPQR 261137
TAFONP
TAF
KONP 261137Z 2612/2712 22006KT 2SM -DZ BR OVC008
     FM261800 20006KT 3SM -RADZ BR OVC008
     FM262100 19007KT 3SM -RA BR OVC008
     FM270600 24006KT P6SM -SHRA SCT007 BKN015 OVC025=



000
FTUS46 KPQR 261137
TAFSLE
TAF
KSLE 261137Z 2612/2712 15004KT P6SM VCSH SCT025 OVC035
     FM262000 18008KT P6SM -RA SCT025 OVC035
     FM262200 19008KT 6SM -RA BR BKN025 OVC035
     FM270000 19006KT 5SM -RA BR BKN020 OVC035=



000
FTUS46 KPQR 261137
TAFAST
TAF
KAST 261137Z 2612/2712 22006KT P6SM SCT018 OVC025
      TEMPO 2612/2615 3SM -RA BR SCT005 BKN015
     FM261600 25006KT P6SM -SHRA SCT012 BKN025 OVC040
     FM261900 22007KT 5SM -RA BR BKN020 OVC030
     FM270200 19007KT 3SM -RA BR FEW008 BKN015 OVC025=



000
FTUS46 KPQR 261137
TAFEUG
TAF
KEUG 261137Z 2612/2712 19005KT P6SM SCT035 OVC070
     FM261600 19004KT P6SM VCSH BKN035 OVC050
     FM262000 19005KT P6SM -RA SCT025 OVC040
     FM262300 19008KT 6SM -RA BR BKN025 OVC035
     FM270100 19006KT 5SM -RA BR BKN020 OVC035=



000
FTUS46 KPQR 261137
TAFTTD
TAF
KTTD 261137Z 2612/2712 VRB03KT 3SM -RA BR BKN008 OVC020
     FM261500 VRB03KT 4SM -RA SCT008 BKN015 OVC025
     FM261700 17006KT P6SM -SHRA SCT025 BKN030 OVC045
     FM262200 19006KT 5SM -RA BR BKN025 OVC040
     FM270200 19006KT 3SM -RA BR BKN020 OVC035=



000
FTUS46 KPQR 261137
TAFTTD
TAF
KTTD 261137Z 2612/2712 VRB03KT 3SM -RA BR BKN008 OVC020
     FM261500 VRB03KT 4SM -RA SCT008 BKN015 OVC025
     FM261700 17006KT P6SM -SHRA SCT025 BKN030 OVC045
     FM262200 19006KT 5SM -RA BR BKN025 OVC040
     FM270200 19006KT 3SM -RA BR BKN020 OVC035=



000
FTUS46 KPQR 261137
TAFHIO
TAF
KHIO 261137Z 2612/2712 VRB03KT 3SM BR SCT022 OVC040
      TEMPO 2612/2616 2SM -SHRA BR FEW009 BKN020 OVC035
     FM261600 VRB03KT 3SM -SHRA BR SCT012 BKN020 OVC030
     FM261800 17004KT P6SM -SHRA SCT025 BKN035 OVC050
     FM262200 19005KT 5SM -RA BR BKN025 OVC040
     FM270200 19005KT 3SM -RA BR BKN018 OVC030=



000
FTUS46 KPQR 261137
TAFPDX
TAF
KPDX 261137Z 2612/2712 16004KT 6SM -SHRA BR SCT015 BKN025 OVC035
      TEMPO 2612/2616 3SM BR FEW009 BKN015
     FM261600 16004KT 4SM -SHRA SCT015 BKN025 OVC035
     FM261800 17006KT P6SM -SHRA SCT025 BKN035 OVC050
     FM262200 19006KT 5SM -RA BR BKN025 OVC040
     FM270200 19006KT 3SM -RA BR BKN020 OVC035=



000
FTUS46 KPQR 261137
TAFEUG
TAF
KEUG 261137Z 2612/2712 19005KT P6SM SCT035 OVC070
     FM261600 19004KT P6SM VCSH BKN035 OVC050
     FM262000 19005KT P6SM -RA SCT025 OVC040
     FM262300 19008KT 6SM -RA BR BKN025 OVC035
     FM270100 19006KT 5SM -RA BR BKN020 OVC035=



000
FTUS46 KPQR 261137
TAFAST
TAF
KAST 261137Z 2612/2712 22006KT P6SM SCT018 OVC025
      TEMPO 2612/2615 3SM -RA BR SCT005 BKN015
     FM261600 25006KT P6SM -SHRA SCT012 BKN025 OVC040
     FM261900 22007KT 5SM -RA BR BKN020 OVC030
     FM270200 19007KT 3SM -RA BR FEW008 BKN015 OVC025=



000
FTUS46 KPQR 261137
TAFEUG
TAF
KEUG 261137Z 2612/2712 19005KT P6SM SCT035 OVC070
     FM261600 19004KT P6SM VCSH BKN035 OVC050
     FM262000 19005KT P6SM -RA SCT025 OVC040
     FM262300 19008KT 6SM -RA BR BKN025 OVC035
     FM270100 19006KT 5SM -RA BR BKN020 OVC035=



000
FTUS46 KPQR 261137
TAFPDX
TAF
KPDX 261137Z 2612/2712 16004KT 6SM -SHRA BR SCT015 BKN025 OVC035
      TEMPO 2612/2616 3SM BR FEW009 BKN015
     FM261600 16004KT 4SM -SHRA SCT015 BKN025 OVC035
     FM261800 17006KT P6SM -SHRA SCT025 BKN035 OVC050
     FM262200 19006KT 5SM -RA BR BKN025 OVC040
     FM270200 19006KT 3SM -RA BR BKN020 OVC035=



000
FTUS46 KPQR 261137
TAFSLE
TAF
KSLE 261137Z 2612/2712 15004KT P6SM VCSH SCT025 OVC035
     FM262000 18008KT P6SM -RA SCT025 OVC035
     FM262200 19008KT 6SM -RA BR BKN025 OVC035
     FM270000 19006KT 5SM -RA BR BKN020 OVC035=



000
FTUS46 KPQR 261137
TAFAST
TAF
KAST 261137Z 2612/2712 22006KT P6SM SCT018 OVC025
      TEMPO 2612/2615 3SM -RA BR SCT005 BKN015
     FM261600 25006KT P6SM -SHRA SCT012 BKN025 OVC040
     FM261900 22007KT 5SM -RA BR BKN020 OVC030
     FM270200 19007KT 3SM -RA BR FEW008 BKN015 OVC025=



000
FTUS46 KPQR 261137
TAFPDX
TAF
KPDX 261137Z 2612/2712 16004KT 6SM -SHRA BR SCT015 BKN025 OVC035
      TEMPO 2612/2616 3SM BR FEW009 BKN015
     FM261600 16004KT 4SM -SHRA SCT015 BKN025 OVC035
     FM261800 17006KT P6SM -SHRA SCT025 BKN035 OVC050
     FM262200 19006KT 5SM -RA BR BKN025 OVC040
     FM270200 19006KT 3SM -RA BR BKN020 OVC035=



000
FTUS46 KPQR 261137
TAFONP
TAF
KONP 261137Z 2612/2712 22006KT 2SM -DZ BR OVC008
     FM261800 20006KT 3SM -RADZ BR OVC008
     FM262100 19007KT 3SM -RA BR OVC008
     FM270600 24006KT P6SM -SHRA SCT007 BKN015 OVC025=



000
FTUS46 KPQR 261137
TAFONP
TAF
KONP 261137Z 2612/2712 22006KT 2SM -DZ BR OVC008
     FM261800 20006KT 3SM -RADZ BR OVC008
     FM262100 19007KT 3SM -RA BR OVC008
     FM270600 24006KT P6SM -SHRA SCT007 BKN015 OVC025=



000
FTUS46 KPQR 261137
TAFTTD
TAF
KTTD 261137Z 2612/2712 VRB03KT 3SM -RA BR BKN008 OVC020
     FM261500 VRB03KT 4SM -RA SCT008 BKN015 OVC025
     FM261700 17006KT P6SM -SHRA SCT025 BKN030 OVC045
     FM262200 19006KT 5SM -RA BR BKN025 OVC040
     FM270200 19006KT 3SM -RA BR BKN020 OVC035=



000
FTUS46 KPQR 261137
TAFHIO
TAF
KHIO 261137Z 2612/2712 VRB03KT 3SM BR SCT022 OVC040
      TEMPO 2612/2616 2SM -SHRA BR FEW009 BKN020 OVC035
     FM261600 VRB03KT 3SM -SHRA BR SCT012 BKN020 OVC030
     FM261800 17004KT P6SM -SHRA SCT025 BKN035 OVC050
     FM262200 19005KT 5SM -RA BR BKN025 OVC040
     FM270200 19005KT 3SM -RA BR BKN018 OVC030=



000
FTUS46 KPQR 260909 AAA
TAFHIO
TAF AMD
KHIO 260909Z 2609/2706 VRB03KT 4SM BR SCT022 OVC040
      TEMPO 2609/2611 2SM -RA BR SCT015 BKN025 OVC035
     FM261100 VRB03KT 6SM -RA BR BKN015 OVC030
     FM261300 VRB02KT 5SM -RA BR BKN009 OVC020
     FM261900 20003KT P6SM -SHRA SCT017 OVC035
     FM270200 VRB02KT P6SM -SHRA BKN022 OVC035=



000
FTUS46 KPQR 260909 AAA
TAFHIO
TAF AMD
KHIO 260909Z 2609/2706 VRB03KT 4SM BR SCT022 OVC040
      TEMPO 2609/2611 2SM -RA BR SCT015 BKN025 OVC035
     FM261100 VRB03KT 6SM -RA BR BKN015 OVC030
     FM261300 VRB02KT 5SM -RA BR BKN009 OVC020
     FM261900 20003KT P6SM -SHRA SCT017 OVC035
     FM270200 VRB02KT P6SM -SHRA BKN022 OVC035=



000
FTUS46 KPQR 260909 AAA
TAFHIO
TAF AMD
KHIO 260909Z 2609/2706 VRB03KT 4SM BR SCT022 OVC040
      TEMPO 2609/2611 2SM -RA BR SCT015 BKN025 OVC035
     FM261100 VRB03KT 6SM -RA BR BKN015 OVC030
     FM261300 VRB02KT 5SM -RA BR BKN009 OVC020
     FM261900 20003KT P6SM -SHRA SCT017 OVC035
     FM270200 VRB02KT P6SM -SHRA BKN022 OVC035=



000
FTUS46 KPQR 260909 AAA
TAFHIO
TAF AMD
KHIO 260909Z 2609/2706 VRB03KT 4SM BR SCT022 OVC040
      TEMPO 2609/2611 2SM -RA BR SCT015 BKN025 OVC035
     FM261100 VRB03KT 6SM -RA BR BKN015 OVC030
     FM261300 VRB02KT 5SM -RA BR BKN009 OVC020
     FM261900 20003KT P6SM -SHRA SCT017 OVC035
     FM270200 VRB02KT P6SM -SHRA BKN022 OVC035=



000
FTUS46 KPQR 260856 AAA
TAFTTD
TAF AMD
KTTD 260856Z 2609/2706 VRB03KT P6SM SCT025 BKN035 OVC050
      TEMPO 2609/2612 BKN020 OVC035
     FM261200 24004KT P6SM -RA BKN025 OVC035
     FM261900 VRB03KT P6SM -SHRA SCT025 BKN035 OVC050
     FM270200 VRB03KT P6SM -SHRA BKN025 OVC035=



000
FTUS46 KPQR 260856 AAA
TAFTTD
TAF AMD
KTTD 260856Z 2609/2706 VRB03KT P6SM SCT025 BKN035 OVC050
      TEMPO 2609/2612 BKN020 OVC035
     FM261200 24004KT P6SM -RA BKN025 OVC035
     FM261900 VRB03KT P6SM -SHRA SCT025 BKN035 OVC050
     FM270200 VRB03KT P6SM -SHRA BKN025 OVC035=



000
FTUS46 KPQR 260856 AAA
TAFTTD
TAF AMD
KTTD 260856Z 2609/2706 VRB03KT P6SM SCT025 BKN035 OVC050
      TEMPO 2609/2612 BKN020 OVC035
     FM261200 24004KT P6SM -RA BKN025 OVC035
     FM261900 VRB03KT P6SM -SHRA SCT025 BKN035 OVC050
     FM270200 VRB03KT P6SM -SHRA BKN025 OVC035=



000
FTUS46 KPQR 260856 AAA
TAFTTD
TAF AMD
KTTD 260856Z 2609/2706 VRB03KT P6SM SCT025 BKN035 OVC050
      TEMPO 2609/2612 BKN020 OVC035
     FM261200 24004KT P6SM -RA BKN025 OVC035
     FM261900 VRB03KT P6SM -SHRA SCT025 BKN035 OVC050
     FM270200 VRB03KT P6SM -SHRA BKN025 OVC035=



000
FTUS46 KPQR 260855 AAA
TAFPDX
TAF AMD
KPDX 260855Z 2609/2706 20005KT P6SM SCT025 BKN035 OVC050
      TEMPO 2609/2612 BKN020 OVC035
     FM261200 19004KT P6SM -RA BKN025 OVC035
     FM261800 19006KT P6SM -SHRA SCT025 BKN035 OVC050
     FM270000 18004KT P6SM -SHRA BKN025 OVC040=



000
FTUS46 KPQR 260855 AAA
TAFPDX
TAF AMD
KPDX 260855Z 2609/2706 20005KT P6SM SCT025 BKN035 OVC050
      TEMPO 2609/2612 BKN020 OVC035
     FM261200 19004KT P6SM -RA BKN025 OVC035
     FM261800 19006KT P6SM -SHRA SCT025 BKN035 OVC050
     FM270000 18004KT P6SM -SHRA BKN025 OVC040=



000
FTUS46 KPQR 260855 AAA
TAFPDX
TAF AMD
KPDX 260855Z 2609/2706 20005KT P6SM SCT025 BKN035 OVC050
      TEMPO 2609/2612 BKN020 OVC035
     FM261200 19004KT P6SM -RA BKN025 OVC035
     FM261800 19006KT P6SM -SHRA SCT025 BKN035 OVC050
     FM270000 18004KT P6SM -SHRA BKN025 OVC040=



000
FTUS46 KPQR 260850 AAA
TAFAST
TAF AMD
KAST 260850Z 2609/2706 22005KT 4SM -RA BR BKN005 OVC015
     FM261100 22005KT 5SM -RA BR SCT008 BKN018 OVC030
     FM261600 30006KT P6SM -SHRA SCT012 BKN025 OVC040
     FM262200 VRB04KT P6SM -SHRA BKN020 OVC030=



000
FTUS46 KPQR 260850 AAA
TAFAST
TAF AMD
KAST 260850Z 2609/2706 22005KT 4SM -RA BR BKN005 OVC015
     FM261100 22005KT 5SM -RA BR SCT008 BKN018 OVC030
     FM261600 30006KT P6SM -SHRA SCT012 BKN025 OVC040
     FM262200 VRB04KT P6SM -SHRA BKN020 OVC030=



000
FTUS46 KPQR 260850 AAA
TAFAST
TAF AMD
KAST 260850Z 2609/2706 22005KT 4SM -RA BR BKN005 OVC015
     FM261100 22005KT 5SM -RA BR SCT008 BKN018 OVC030
     FM261600 30006KT P6SM -SHRA SCT012 BKN025 OVC040
     FM262200 VRB04KT P6SM -SHRA BKN020 OVC030=



000
FTUS46 KPQR 260850 AAA
TAFAST
TAF AMD
KAST 260850Z 2609/2706 22005KT 4SM -RA BR BKN005 OVC015
     FM261100 22005KT 5SM -RA BR SCT008 BKN018 OVC030
     FM261600 30006KT P6SM -SHRA SCT012 BKN025 OVC040
     FM262200 VRB04KT P6SM -SHRA BKN020 OVC030=



000
FTUS46 KPQR 260530
TAFEUG
TAF
KEUG 260530Z 2606/2706 22005KT P6SM SCT035 OVC070
     FM261300 19004KT P6SM -RA BKN025 OVC040
     FM262000 19005KT P6SM -RA BKN015 OVC035
     FM270200 21005KT P6SM -SHRA SCT015 BKN025 OVC040=



000
FTUS46 KPQR 260530
TAFONP
TAF
KONP 260530Z 2606/2706 VRB04KT P6SM SCT010 BKN018
     FM261100 22005KT 5SM -RA BR BKN008 OVC018
     FM261700 19006KT 3SM -RA BR OVC007
     FM270100 23006KT P6SM SCT007 BKN015 OVC025=



000
FTUS46 KPQR 260530
TAFTTD
TAF
KTTD 260530Z 2606/2706 VRB03KT P6SM SCT025 BKN035 OVC050
      TEMPO 2606/2609 BKN025 OVC035
     FM260900 24004KT P6SM -RA BKN025 OVC035
     FM261900 VRB03KT P6SM -SHRA SCT025 BKN035 OVC050
     FM270200 VRB03KT P6SM -SHRA BKN025 OVC035=



000
FTUS46 KPQR 260530
TAFSLE
TAF
KSLE 260530Z 2606/2706 18005KT P6SM SCT025 BKN035 OVC060
     FM261100 18004KT P6SM -RA BKN025 OVC040
     FM261800 18006KT P6SM -SHRA SCT025 OVC040
     FM270200 19005KT P6SM -SHRA BKN025 OVC035=



000
FTUS46 KPQR 260530
TAFAST
TAF
KAST 260530Z 2606/2706 22005KT P6SM BKN018 OVC035
     FM260900 22005KT 5SM -RA BR SCT008 BKN018 OVC030
     FM261600 30006KT P6SM -SHRA SCT012 BKN025 OVC040
     FM262200 VRB04KT P6SM -SHRA BKN020 OVC030=



000
FTUS46 KPQR 260530
TAFHIO
TAF
KHIO 260530Z 2606/2706 VRB03KT P6SM SCT022 OVC040
      TEMPO 2606/2608 4SM BR
     FM261000 VRB03KT 6SM -RA BR BKN015 OVC030
     FM261300 VRB02KT 5SM -RA BR BKN009 OVC020
     FM261900 20003KT P6SM -SHRA SCT017 OVC035
     FM270200 VRB02KT P6SM -SHRA BKN022 OVC035=



000
FTUS46 KPQR 260530
TAFPDX
TAF
KPDX 260530Z 2606/2706 20005KT P6SM SCT025 BKN035 OVC050
      TEMPO 2606/2609 BKN025 OVC035
     FM260900 19004KT P6SM -RA BKN025 OVC035
     FM261800 19006KT P6SM -SHRA SCT025 BKN035 OVC050
     FM270000 18004KT P6SM -SHRA BKN025 OVC040=



000
FTUS46 KPQR 260530
TAFEUG
TAF
KEUG 260530Z 2606/2706 22005KT P6SM SCT035 OVC070
     FM261300 19004KT P6SM -RA BKN025 OVC040
     FM262000 19005KT P6SM -RA BKN015 OVC035
     FM270200 21005KT P6SM -SHRA SCT015 BKN025 OVC040=



000
FTUS46 KPQR 260530
TAFAST
TAF
KAST 260530Z 2606/2706 22005KT P6SM BKN018 OVC035
     FM260900 22005KT 5SM -RA BR SCT008 BKN018 OVC030
     FM261600 30006KT P6SM -SHRA SCT012 BKN025 OVC040
     FM262200 VRB04KT P6SM -SHRA BKN020 OVC030=



000
FTUS46 KPQR 260530
TAFONP
TAF
KONP 260530Z 2606/2706 VRB04KT P6SM SCT010 BKN018
     FM261100 22005KT 5SM -RA BR BKN008 OVC018
     FM261700 19006KT 3SM -RA BR OVC007
     FM270100 23006KT P6SM SCT007 BKN015 OVC025=



000
FTUS46 KPQR 260530
TAFSLE
TAF
KSLE 260530Z 2606/2706 18005KT P6SM SCT025 BKN035 OVC060
     FM261100 18004KT P6SM -RA BKN025 OVC040
     FM261800 18006KT P6SM -SHRA SCT025 OVC040
     FM270200 19005KT P6SM -SHRA BKN025 OVC035=



000
FTUS46 KPQR 260530
TAFHIO
TAF
KHIO 260530Z 2606/2706 VRB03KT P6SM SCT022 OVC040
      TEMPO 2606/2608 4SM BR
     FM261000 VRB03KT 6SM -RA BR BKN015 OVC030
     FM261300 VRB02KT 5SM -RA BR BKN009 OVC020
     FM261900 20003KT P6SM -SHRA SCT017 OVC035
     FM270200 VRB02KT P6SM -SHRA BKN022 OVC035=



000
FTUS46 KPQR 260530
TAFPDX
TAF
KPDX 260530Z 2606/2706 20005KT P6SM SCT025 BKN035 OVC050
      TEMPO 2606/2609 BKN025 OVC035
     FM260900 19004KT P6SM -RA BKN025 OVC035
     FM261800 19006KT P6SM -SHRA SCT025 BKN035 OVC050
     FM270000 18004KT P6SM -SHRA BKN025 OVC040=



000
FTUS46 KPQR 260404 AAA
TAFHIO
TAF AMD
KHIO 260404Z 2604/2624 VRB03KT P6SM SCT022 OVC040
     FM261000 VRB03KT 6SM -RA BR BKN015 OVC030
     FM261700 21002KT 5SM -RA BR OVC009
     FM262000 20003KT 4SM BR OVC015=



000
FTUS46 KPQR 260404 AAA
TAFHIO
TAF AMD
KHIO 260404Z 2604/2624 VRB03KT P6SM SCT022 OVC040
     FM261000 VRB03KT 6SM -RA BR BKN015 OVC030
     FM261700 21002KT 5SM -RA BR OVC009
     FM262000 20003KT 4SM BR OVC015=



000
FTUS46 KPQR 260404 AAA
TAFHIO
TAF AMD
KHIO 260404Z 2604/2624 VRB03KT P6SM SCT022 OVC040
     FM261000 VRB03KT 6SM -RA BR BKN015 OVC030
     FM261700 21002KT 5SM -RA BR OVC009
     FM262000 20003KT 4SM BR OVC015=



000
FTUS46 KPQR 260404 AAA
TAFHIO
TAF AMD
KHIO 260404Z 2604/2624 VRB03KT P6SM SCT022 OVC040
     FM261000 VRB03KT 6SM -RA BR BKN015 OVC030
     FM261700 21002KT 5SM -RA BR OVC009
     FM262000 20003KT 4SM BR OVC015=



000
FTUS46 KPQR 260303 AAA
TAFAST
TAF AMD
KAST 260303Z 2603/2624 26005KT P6SM SCT022 BKN035 OVC050
     FM260600 22005KT 6SM -RA BR BKN022 OVC035
     FM260900 22005KT 5SM -RA BR SCT008 BKN018 OVC030
     FM261600 30006KT P6SM -SHRA SCT012 BKN025 OVC040=



000
FTUS46 KPQR 260303 AAA
TAFAST
TAF AMD
KAST 260303Z 2603/2624 26005KT P6SM SCT022 BKN035 OVC050
     FM260600 22005KT 6SM -RA BR BKN022 OVC035
     FM260900 22005KT 5SM -RA BR SCT008 BKN018 OVC030
     FM261600 30006KT P6SM -SHRA SCT012 BKN025 OVC040=



000
FTUS46 KPQR 260303 AAA
TAFAST
TAF AMD
KAST 260303Z 2603/2624 26005KT P6SM SCT022 BKN035 OVC050
     FM260600 22005KT 6SM -RA BR BKN022 OVC035
     FM260900 22005KT 5SM -RA BR SCT008 BKN018 OVC030
     FM261600 30006KT P6SM -SHRA SCT012 BKN025 OVC040=



000
FTUS46 KPQR 260257 AAB
TAFPDX
TAF AMD
KPDX 260257Z 2603/2624 20005KT P6SM SCT025 BKN040 OVC070
     FM260900 19004KT P6SM -RA BKN025 OVC040
     FM261800 19006KT P6SM -SHRA SCT025 BKN035 OVC050=



000
FTUS46 KPQR 260257 AAB
TAFPDX
TAF AMD
KPDX 260257Z 2603/2624 20005KT P6SM SCT025 BKN040 OVC070
     FM260900 19004KT P6SM -RA BKN025 OVC040
     FM261800 19006KT P6SM -SHRA SCT025 BKN035 OVC050=



000
FTUS46 KPQR 260257 AAB
TAFPDX
TAF AMD
KPDX 260257Z 2603/2624 20005KT P6SM SCT025 BKN040 OVC070
     FM260900 19004KT P6SM -RA BKN025 OVC040
     FM261800 19006KT P6SM -SHRA SCT025 BKN035 OVC050=



000
FTUS46 KPQR 260257 AAB
TAFPDX
TAF AMD
KPDX 260257Z 2603/2624 20005KT P6SM SCT025 BKN040 OVC070
     FM260900 19004KT P6SM -RA BKN025 OVC040
     FM261800 19006KT P6SM -SHRA SCT025 BKN035 OVC050=



000
FTUS46 KPQR 260053 AAA
TAFTTD
TAF AMD
KTTD 260053Z 2601/2624 VRB03KT P6SM -RA BKN025 OVC035
     FM260700 25005KT P6SM -RA OVC019
     FM262000 VRB03KT 6SM -RA OVC025=



000
FTUS46 KPQR 260053 AAA
TAFTTD
TAF AMD
KTTD 260053Z 2601/2624 VRB03KT P6SM -RA BKN025 OVC035
     FM260700 25005KT P6SM -RA OVC019
     FM262000 VRB03KT 6SM -RA OVC025=



000
FTUS46 KPQR 260053 AAA
TAFTTD
TAF AMD
KTTD 260053Z 2601/2624 VRB03KT P6SM -RA BKN025 OVC035
     FM260700 25005KT P6SM -RA OVC019
     FM262000 VRB03KT 6SM -RA OVC025=



000
FTUS46 KPQR 260053 AAA
TAFTTD
TAF AMD
KTTD 260053Z 2601/2624 VRB03KT P6SM -RA BKN025 OVC035
     FM260700 25005KT P6SM -RA OVC019
     FM262000 VRB03KT 6SM -RA OVC025=



000
FTUS46 KPQR 260052 AAA
TAFPDX
TAF AMD
KPDX 260052Z 2601/2624 20005KT P6SM -RA BKN025 OVC035
     FM260400 23004KT P6SM -RA OVC019
     FM262100 21005KT 6SM -RA OVC025=



000
FTUS46 KPQR 260052 AAA
TAFPDX
TAF AMD
KPDX 260052Z 2601/2624 20005KT P6SM -RA BKN025 OVC035
     FM260400 23004KT P6SM -RA OVC019
     FM262100 21005KT 6SM -RA OVC025=



000
FTUS46 KPQR 260052 AAA
TAFPDX
TAF AMD
KPDX 260052Z 2601/2624 20005KT P6SM -RA BKN025 OVC035
     FM260400 23004KT P6SM -RA OVC019
     FM262100 21005KT 6SM -RA OVC025=



000
FTUS46 KPQR 260052 AAA
TAFPDX
TAF AMD
KPDX 260052Z 2601/2624 20005KT P6SM -RA BKN025 OVC035
     FM260400 23004KT P6SM -RA OVC019
     FM262100 21005KT 6SM -RA OVC025=



000
FTUS46 KPQR 252320
TAFPDX
TAF
KPDX 252320Z 2600/2624 18005KT P6SM BKN035 OVC050
     FM260100 23005KT P6SM OVC035
     FM260400 23004KT P6SM -RA OVC019
     FM262100 21005KT 6SM -RA OVC025=



000
FTUS46 KPQR 252320
TAFEUG
TAF
KEUG 252320Z 2600/2624 32007KT P6SM BKN035
     FM260400 22005KT P6SM BKN025 OVC035
     FM260700 18005KT P6SM -RA OVC019
     FM261700 17005KT P6SM OVC009=



000
FTUS46 KPQR 252320
TAFHIO
TAF
KHIO 252320Z 2600/2624 24004KT P6SM OVC035
     FM260200 25005KT P6SM -RA OVC019
     FM261700 21002KT 5SM -RA BR OVC009
     FM262000 20003KT 4SM BR OVC015=



000
FTUS46 KPQR 252320
TAFSLE
TAF
KSLE 252320Z 2600/2624 21005KT P6SM OVC040
     FM260400 18005KT P6SM -RA OVC019
     FM261800 17007KT 6SM BR OVC007
     FM262200 18007KT 4SM -RA BR OVC015=



000
FTUS46 KPQR 252320
TAFEUG
TAF
KEUG 252320Z 2600/2624 32007KT P6SM BKN035
     FM260400 22005KT P6SM BKN025 OVC035
     FM260700 18005KT P6SM -RA OVC019
     FM261700 17005KT P6SM OVC009=



000
FTUS46 KPQR 252320
TAFTTD
TAF
KTTD 252320Z 2600/2624 VRB03KT P6SM SCT025 OVC040
     FM260300 25002KT P6SM BKN025
     FM260700 25005KT P6SM -RA OVC019
     FM262000 VRB03KT 6SM -RA OVC025=



000
FTUS46 KPQR 252320
TAFAST
TAF
KAST 252320Z 2600/2624 28005KT 6SM -RA BR BKN015 OVC035
     FM260400 24005KT 5SM BR OVC015
     FM260800 24004KT 5SM -RA BR OVC009=



000
FTUS46 KPQR 252320
TAFHIO
TAF
KHIO 252320Z 2600/2624 24004KT P6SM OVC035
     FM260200 25005KT P6SM -RA OVC019
     FM261700 21002KT 5SM -RA BR OVC009
     FM262000 20003KT 4SM BR OVC015=



000
FTUS46 KPQR 252320
TAFONP
TAF
KONP 252320Z 2600/2624 VRB03KT 6SM BR SCT008 BKN015 OVC035
     FM260400 24006KT 5SM -RA BR BKN010 OVC015
     FM261300 22005KT 6SM BR BKN007 BKN010 OVC015
     FM261700 19005KT 5SM -RA BR OVC009=



000
FTUS46 KPQR 252320
TAFAST
TAF
KAST 252320Z 2600/2624 28005KT 6SM -RA BR BKN015 OVC035
     FM260400 24005KT 5SM BR OVC015
     FM260800 24004KT 5SM -RA BR OVC009=



000
FTUS46 KPQR 252320
TAFPDX
TAF
KPDX 252320Z 2600/2624 18005KT P6SM BKN035 OVC050
     FM260100 23005KT P6SM OVC035
     FM260400 23004KT P6SM -RA OVC019
     FM262100 21005KT 6SM -RA OVC025=



000
FTUS46 KPQR 252320
TAFSLE
TAF
KSLE 252320Z 2600/2624 21005KT P6SM OVC040
     FM260400 18005KT P6SM -RA OVC019
     FM261800 17007KT 6SM BR OVC007
     FM262200 18007KT 4SM -RA BR OVC015=



000
FTUS46 KPQR 252320
TAFONP
TAF
KONP 252320Z 2600/2624 VRB03KT 6SM BR SCT008 BKN015 OVC035
     FM260400 24006KT 5SM -RA BR BKN010 OVC015
     FM261300 22005KT 6SM BR BKN007 BKN010 OVC015
     FM261700 19005KT 5SM -RA BR OVC009=



000
FTUS46 KPQR 252320
TAFTTD
TAF
KTTD 252320Z 2600/2624 VRB03KT P6SM SCT025 OVC040
     FM260300 25002KT P6SM BKN025
     FM260700 25005KT P6SM -RA OVC019
     FM262000 VRB03KT 6SM -RA OVC025=



000
FTUS46 KPQR 252101 AAA
TAFPDX
TAF AMD
KPDX 252101Z 2521/2618 18005KT P6SM BKN035 OVC050
     FM260100 25005KT P6SM BKN025 OVC035
     FM260400 23004KT P6SM -RA OVC019=



000
FTUS46 KPQR 251759 CCA
TAFONP
TAF COR
KONP 251759Z 2518/2618 VRB03KT 6SM BR SCT008 BKN015 OVC035
      TEMPO 2518/2522 2SM -DZ BR BKN008 OVC015
     FM260400 24006KT 5SM -RA BR BKN010 OVC015=



000
FTUS46 KPQR 251727
TAFEUG
TAF
KEUG 251727Z 2518/2618 22004KT P6SM SCT150
     FM251900 32007KT P6SM BKN045
     FM260300 22005KT P6SM BKN025 OVC035
     FM260700 18005KT P6SM -RA OVC019=



000
FTUS46 KPQR 251727
TAFPDX
TAF
KPDX 251727Z 2518/2618 11005KT P6SM SCT030 OVC040
     FM252100 27005KT P6SM SCT025 OVC035
     FM260100 25005KT P6SM BKN025 OVC035
     FM260400 23004KT P6SM -RA OVC019=



000
FTUS46 KPQR 251727
TAFSLE
TAF
KSLE 251727Z 2518/2618 VRB03KT P6SM BKN035
     FM252000 19005KT P6SM OVC040
     FM260400 18005KT P6SM -RA OVC019=



000
FTUS46 KPQR 251727
TAFTTD
TAF
KTTD 251727Z 2518/2618 VRB03KT P6SM SCT025 OVC040
     FM260200 25002KT P6SM BKN025
     FM260700 25005KT P6SM -RA OVC019=



000
FTUS46 KPQR 251727
TAFONP
TAF
KONP 251727Z 2518/2618 VRB03KT 6SM BR SCT015 BKN022
     FM260400 24006KT 5SM -RA BR BKN010 OVC015=



000
FTUS46 KPQR 251727
TAFAST
TAF
KAST 251727Z 2518/2618 26004KT P6SM SCT008 BKN015 BKN040
     FM252100 28005KT 6SM -RA BR BKN015 OVC035
     FM260400 24005KT 5SM -RA BR OVC015=



000
FTUS46 KPQR 251727
TAFHIO
TAF
KHIO 251727Z 2518/2618 VRB03KT P6SM SCT025 OVC035
     FM252100 29004KT P6SM BKN025
     FM260200 25005KT P6SM -RA OVC019=



000
FTUS46 KPQR 251727
TAFONP
TAF
KONP 251727Z 2518/2618 VRB03KT 6SM BR SCT015 BKN022
     FM260400 24006KT 5SM -RA BR BKN010 OVC015=



000
FTUS46 KPQR 251727
TAFTTD
TAF
KTTD 251727Z 2518/2618 VRB03KT P6SM SCT025 OVC040
     FM260200 25002KT P6SM BKN025
     FM260700 25005KT P6SM -RA OVC019=



000
FTUS46 KPQR 251727
TAFEUG
TAF
KEUG 251727Z 2518/2618 22004KT P6SM SCT150
     FM251900 32007KT P6SM BKN045
     FM260300 22005KT P6SM BKN025 OVC035
     FM260700 18005KT P6SM -RA OVC019=



000
FTUS46 KPQR 251727
TAFSLE
TAF
KSLE 251727Z 2518/2618 VRB03KT P6SM BKN035
     FM252000 19005KT P6SM OVC040
     FM260400 18005KT P6SM -RA OVC019=



000
FTUS46 KPQR 251727
TAFPDX
TAF
KPDX 251727Z 2518/2618 11005KT P6SM SCT030 OVC040
     FM252100 27005KT P6SM SCT025 OVC035
     FM260100 25005KT P6SM BKN025 OVC035
     FM260400 23004KT P6SM -RA OVC019=



000
FTUS46 KPQR 251625 AAB
TAFAST
TAF AMD
KAST 251625Z 2516/2612 27004KT P6SM SCT008 BKN015 BKN040
     FM252100 28005KT 6SM -RA BR BKN015 OVC035
     FM260400 24005KT 5SM -RA BR OVC015=



000
FTUS46 KPQR 251625 AAB
TAFAST
TAF AMD
KAST 251625Z 2516/2612 27004KT P6SM SCT008 BKN015 BKN040
     FM252100 28005KT 6SM -RA BR BKN015 OVC035
     FM260400 24005KT 5SM -RA BR OVC015=



000
FTUS46 KPQR 251600 AAA
TAFAST
TAF AMD
KAST 251600Z 2516/2612 27004KT P6SM SCT008 SCT015 BKN035
     FM252100 28005KT 6SM -RA BR BKN015 OVC035
     FM260400 24005KT 5SM -RA BR OVC015=



000
FTUS46 KPQR 251600 AAA
TAFAST
TAF AMD
KAST 251600Z 2516/2612 27004KT P6SM SCT008 SCT015 BKN035
     FM252100 28005KT 6SM -RA BR BKN015 OVC035
     FM260400 24005KT 5SM -RA BR OVC015=



000
FTUS46 KPQR 251600 AAA
TAFAST
TAF AMD
KAST 251600Z 2516/2612 27004KT P6SM SCT008 SCT015 BKN035
     FM252100 28005KT 6SM -RA BR BKN015 OVC035
     FM260400 24005KT 5SM -RA BR OVC015=



000
FTUS46 KPQR 251600 AAA
TAFAST
TAF AMD
KAST 251600Z 2516/2612 27004KT P6SM SCT008 SCT015 BKN035
     FM252100 28005KT 6SM -RA BR BKN015 OVC035
     FM260400 24005KT 5SM -RA BR OVC015=



000
FTUS46 KPQR 251450 AAA
TAFONP
TAF AMD
KONP 251450Z 2515/2612 VRB03KT P6SM SCT015
     FM251700 VRB03KT P6SM SCT015 BKN022
     FM260400 24006KT 4SM -RA BR BKN010 OVC015=



000
FTUS46 KPQR 251445 AAA
TAFHIO
TAF AMD
KHIO 251445Z 2515/2612 VRB03KT P6SM SCT025 OVC035
      TEMPO 2516/2519 BKN025
     FM260200 25005KT P6SM -RA BKN025 OVC035=



000
FTUS46 KPQR 251445 AAA
TAFHIO
TAF AMD
KHIO 251445Z 2515/2612 VRB03KT P6SM SCT025 OVC035
      TEMPO 2516/2519 BKN025
     FM260200 25005KT P6SM -RA BKN025 OVC035=



000
FTUS46 KPQR 251444 AAA
TAFEUG
TAF AMD
KEUG 251444Z 2515/2612 22004KT P6SM SCT150
     FM251900 32007KT P6SM BKN045
     FM260300 32005KT P6SM -RA BKN025 OVC035=



000
FTUS46 KPQR 251444 AAA
TAFEUG
TAF AMD
KEUG 251444Z 2515/2612 22004KT P6SM SCT150
     FM251900 32007KT P6SM BKN045
     FM260300 32005KT P6SM -RA BKN025 OVC035=



000
FTUS46 KPQR 251420 AAA
TAFSLE
TAF AMD
KSLE 251420Z 2514/2612 VRB03KT P6SM BKN035
     FM252000 28005KT P6SM OVC040
     FM260400 25005KT P6SM -RA BKN025 OVC035=



000
FTUS46 KPQR 251420 AAA
TAFSLE
TAF AMD
KSLE 251420Z 2514/2612 VRB03KT P6SM BKN035
     FM252000 28005KT P6SM OVC040
     FM260400 25005KT P6SM -RA BKN025 OVC035=



000
FTUS46 KPQR 251418 AAA
TAFTTD
TAF AMD
KTTD 251418Z 2514/2612 VRB03KT P6SM SCT025 OVC050
      TEMPO 2516/2519 BKN025
     FM252100 26004KT P6SM SCT025 OVC035
     FM260400 25005KT P6SM -RA BKN025 OVC035=



000
FTUS46 KPQR 251418 AAA
TAFTTD
TAF AMD
KTTD 251418Z 2514/2612 VRB03KT P6SM SCT025 OVC050
      TEMPO 2516/2519 BKN025
     FM252100 26004KT P6SM SCT025 OVC035
     FM260400 25005KT P6SM -RA BKN025 OVC035=



000
FTUS46 KPQR 251417 AAA
TAFPDX
TAF AMD
KPDX 251417Z 2514/2612 11005KT P6SM SCT026 OVC040
      TEMPO 2516/2519 BKN026
     FM252100 27005KT P6SM SCT025 OVC035
     FM260400 25005KT P6SM -RA BKN025 OVC035=



000
FTUS46 KPQR 251417 AAA
TAFPDX
TAF AMD
KPDX 251417Z 2514/2612 11005KT P6SM SCT026 OVC040
      TEMPO 2516/2519 BKN026
     FM252100 27005KT P6SM SCT025 OVC035
     FM260400 25005KT P6SM -RA BKN025 OVC035=



000
FTUS46 KPQR 251143
TAFSLE
TAF
KSLE 251143Z 2512/2612 VRB03KT P6SM BKN030
     FM252000 27005KT P6SM SCT025 OVC040
     FM260300 25005KT P6SM -RA BKN025 OVC035=



000
FTUS46 KPQR 251143
TAFEUG
TAF
KEUG 251143Z 2512/2612 26006KT P6SM SCT150
     FM251500 VRB03KT P6SM BKN028 BKN040
     FM251900 32007KT P6SM SCT025 OVC045
     FM260300 32005KT P6SM -RA BKN025 OVC035=



000
FTUS46 KPQR 251143
TAFPDX
TAF
KPDX 251143Z 2512/2612 VRB03KT P6SM OVC022
     FM252100 27005KT P6SM SCT025 OVC035
     FM260200 25005KT P6SM -RA BKN025 OVC035=



000
FTUS46 KPQR 251143
TAFPDX
TAF
KPDX 251143Z 2512/2612 VRB03KT P6SM OVC022
     FM252100 27005KT P6SM SCT025 OVC035
     FM260200 25005KT P6SM -RA BKN025 OVC035=



000
FTUS46 KPQR 251143
TAFHIO
TAF
KHIO 251143Z 2512/2612 VRB03KT P6SM BKN025 OVC035
     FM251900 VRB03KT P6SM SCT025 OVC035
     FM260200 25005KT P6SM -RA BKN025 OVC035=



000
FTUS46 KPQR 251143
TAFAST
TAF
KAST 251143Z 2512/2612 27004KT P6SM SCT008 OVC015
      TEMPO 2513/2517 3SM -DZ BKN008
     FM252100 28005KT 6SM -RA BR BKN015 OVC035
     FM260400 24005KT 5SM -RA BR OVC015=



000
FTUS46 KPQR 251143
TAFTTD
TAF
KTTD 251143Z 2512/2612 VRB03KT P6SM OVC024
     FM252100 26004KT P6SM SCT025 OVC035
     FM260200 25005KT P6SM -RA BKN025 OVC035=



000
FTUS46 KPQR 251143
TAFONP
TAF
KONP 251143Z 2512/2612 34005KT P6SM SCT010 OVC024
     FM251500 34003KT P6SM BKN011 OVC020
     FM251900 34007KT P6SM SCT015 OVC025
     FM260400 24006KT 4SM -RA BR BKN010 OVC015=



000
FTUS46 KPQR 251143
TAFEUG
TAF
KEUG 251143Z 2512/2612 26006KT P6SM SCT150
     FM251500 VRB03KT P6SM BKN028 BKN040
     FM251900 32007KT P6SM SCT025 OVC045
     FM260300 32005KT P6SM -RA BKN025 OVC035=



000
FTUS46 KPQR 251143
TAFONP
TAF
KONP 251143Z 2512/2612 34005KT P6SM SCT010 OVC024
     FM251500 34003KT P6SM BKN011 OVC020
     FM251900 34007KT P6SM SCT015 OVC025
     FM260400 24006KT 4SM -RA BR BKN010 OVC015=



000
FTUS46 KPQR 251143
TAFHIO
TAF
KHIO 251143Z 2512/2612 VRB03KT P6SM BKN025 OVC035
     FM251900 VRB03KT P6SM SCT025 OVC035
     FM260200 25005KT P6SM -RA BKN025 OVC035=



000
FTUS46 KPQR 251143
TAFTTD
TAF
KTTD 251143Z 2512/2612 VRB03KT P6SM OVC024
     FM252100 26004KT P6SM SCT025 OVC035
     FM260200 25005KT P6SM -RA BKN025 OVC035=



000
FTUS46 KPQR 251143
TAFTTD
TAF
KTTD 251143Z 2512/2612 VRB03KT P6SM OVC024
     FM252100 26004KT P6SM SCT025 OVC035
     FM260200 25005KT P6SM -RA BKN025 OVC035=



000
FTUS46 KPQR 251143
TAFEUG
TAF
KEUG 251143Z 2512/2612 26006KT P6SM SCT150
     FM251500 VRB03KT P6SM BKN028 BKN040
     FM251900 32007KT P6SM SCT025 OVC045
     FM260300 32005KT P6SM -RA BKN025 OVC035=



000
FTUS46 KPQR 251143
TAFSLE
TAF
KSLE 251143Z 2512/2612 VRB03KT P6SM BKN030
     FM252000 27005KT P6SM SCT025 OVC040
     FM260300 25005KT P6SM -RA BKN025 OVC035=



000
FTUS46 KPQR 251143
TAFHIO
TAF
KHIO 251143Z 2512/2612 VRB03KT P6SM BKN025 OVC035
     FM251900 VRB03KT P6SM SCT025 OVC035
     FM260200 25005KT P6SM -RA BKN025 OVC035=



000
FTUS46 KPQR 251143
TAFPDX
TAF
KPDX 251143Z 2512/2612 VRB03KT P6SM OVC022
     FM252100 27005KT P6SM SCT025 OVC035
     FM260200 25005KT P6SM -RA BKN025 OVC035=



000
FTUS46 KPQR 251143
TAFSLE
TAF
KSLE 251143Z 2512/2612 VRB03KT P6SM BKN030
     FM252000 27005KT P6SM SCT025 OVC040
     FM260300 25005KT P6SM -RA BKN025 OVC035=



000
FTUS46 KPQR 251143
TAFHIO
TAF
KHIO 251143Z 2512/2612 VRB03KT P6SM BKN025 OVC035
     FM251900 VRB03KT P6SM SCT025 OVC035
     FM260200 25005KT P6SM -RA BKN025 OVC035=



000
FTUS46 KPQR 251143
TAFTTD
TAF
KTTD 251143Z 2512/2612 VRB03KT P6SM OVC024
     FM252100 26004KT P6SM SCT025 OVC035
     FM260200 25005KT P6SM -RA BKN025 OVC035=



000
FTUS46 KPQR 251143
TAFAST
TAF
KAST 251143Z 2512/2612 27004KT P6SM SCT008 OVC015
      TEMPO 2513/2517 3SM -DZ BKN008
     FM252100 28005KT 6SM -RA BR BKN015 OVC035
     FM260400 24005KT 5SM -RA BR OVC015=



000
FTUS46 KPQR 251143
TAFPDX
TAF
KPDX 251143Z 2512/2612 VRB03KT P6SM OVC022
     FM252100 27005KT P6SM SCT025 OVC035
     FM260200 25005KT P6SM -RA BKN025 OVC035=



000
FTUS46 KPQR 251143
TAFEUG
TAF
KEUG 251143Z 2512/2612 26006KT P6SM SCT150
     FM251500 VRB03KT P6SM BKN028 BKN040
     FM251900 32007KT P6SM SCT025 OVC045
     FM260300 32005KT P6SM -RA BKN025 OVC035=



000
FTUS46 KPQR 251143
TAFSLE
TAF
KSLE 251143Z 2512/2612 VRB03KT P6SM BKN030
     FM252000 27005KT P6SM SCT025 OVC040
     FM260300 25005KT P6SM -RA BKN025 OVC035=



000
FTUS46 KPQR 251143
TAFAST
TAF
KAST 251143Z 2512/2612 27004KT P6SM SCT008 OVC015
      TEMPO 2513/2517 3SM -DZ BKN008
     FM252100 28005KT 6SM -RA BR BKN015 OVC035
     FM260400 24005KT 5SM -RA BR OVC015=



000
FTUS46 KPQR 251143
TAFONP
TAF
KONP 251143Z 2512/2612 34005KT P6SM SCT010 OVC024
     FM251500 34003KT P6SM BKN011 OVC020
     FM251900 34007KT P6SM SCT015 OVC025
     FM260400 24006KT 4SM -RA BR BKN010 OVC015=



000
FTUS46 KPQR 251143
TAFAST
TAF
KAST 251143Z 2512/2612 27004KT P6SM SCT008 OVC015
      TEMPO 2513/2517 3SM -DZ BKN008
     FM252100 28005KT 6SM -RA BR BKN015 OVC035
     FM260400 24005KT 5SM -RA BR OVC015=



000
FTUS46 KPQR 250821 AAA
TAFPDX
TAF AMD
KPDX 250821Z 2508/2606 VRB03KT P6SM OVC035
     FM251000 VRB03KT P6SM BKN025 OVC035
     FM251900 27005KT P6SM SCT025 OVC035
     FM260400 25005KT P6SM BKN025 OVC035=



000
FTUS46 KPQR 250821 AAA
TAFPDX
TAF AMD
KPDX 250821Z 2508/2606 VRB03KT P6SM OVC035
     FM251000 VRB03KT P6SM BKN025 OVC035
     FM251900 27005KT P6SM SCT025 OVC035
     FM260400 25005KT P6SM BKN025 OVC035=



000
FTUS46 KPQR 250820 AAA
TAFHIO
TAF AMD
KHIO 250820Z 2508/2606 VRB03KT P6SM BKN025 OVC035
     FM251400 VRB02KT P6SM BKN017 OVC035
     FM252000 29004KT P6SM SCT020 OVC035
     FM260300 VRB03KT P6SM OVC017=



000
FTUS46 KPQR 250820 AAA
TAFHIO
TAF AMD
KHIO 250820Z 2508/2606 VRB03KT P6SM BKN025 OVC035
     FM251400 VRB02KT P6SM BKN017 OVC035
     FM252000 29004KT P6SM SCT020 OVC035
     FM260300 VRB03KT P6SM OVC017=



000
FTUS46 KPQR 250819 AAA
TAFAST
TAF AMD
KAST 250819Z 2508/2606 29007KT P6SM BKN018 OVC030
     FM251000 27004KT 4SM -DZ BR BKN008 OVC015
     FM251400 25003KT P6SM OVC021
     FM251800 28005KT P6SM BKN025 OVC035
     FM260300 24005KT P6SM OVC022=



000
FTUS46 KPQR 250819 AAA
TAFAST
TAF AMD
KAST 250819Z 2508/2606 29007KT P6SM BKN018 OVC030
     FM251000 27004KT 4SM -DZ BR BKN008 OVC015
     FM251400 25003KT P6SM OVC021
     FM251800 28005KT P6SM BKN025 OVC035
     FM260300 24005KT P6SM OVC022=



000
FTUS46 KPQR 250534
TAFHIO
TAF
KHIO 250534Z 2506/2606 30005KT P6SM SCT040 BKN140
     FM251000 30004KT P6SM BKN022 OVC045
     FM251400 VRB02KT P6SM BKN017 OVC035
     FM252000 29004KT P6SM SCT020 OVC035
     FM260300 VRB03KT P6SM OVC017=



000
FTUS46 KPQR 250534
TAFAST
TAF
KAST 250534Z 2506/2606 29007KT P6SM BKN018 OVC030
     FM250800 27004KT 6SM -DZ BR BKN015 OVC025
     FM251400 25003KT P6SM OVC021
     FM251800 28005KT P6SM BKN025 OVC035
     FM260300 24005KT P6SM OVC022=



000
FTUS46 KPQR 250534
TAFONP
TAF
KONP 250534Z 2506/2606 36006KT P6SM SCT022 OVC200
      TEMPO 2506/2508 BKN022 OVC200
     FM250800 34005KT P6SM OVC022
     FM251200 34003KT 6SM BR BKN015 OVC025
     FM251900 34007KT P6SM SCT015 OVC025=



000
FTUS46 KPQR 250534
TAFPDX
TAF
KPDX 250534Z 2506/2606 31005KT P6SM SCT140 OVC250
     FM250700 29005KT P6SM SCT040 BKN140
     FM250900 27004KT P6SM BKN025 OVC050
     FM251900 27005KT P6SM SCT025 OVC035
     FM260400 25005KT P6SM BKN025 OVC035=



000
FTUS46 KPQR 250534
TAFEUG
TAF
KEUG 250534Z 2506/2606 26006KT P6SM SCT150
     FM251200 27004KT P6SM SCT025 BKN050
     FM251400 VRB03KT P6SM BKN022 OVC040
     FM251900 32007KT P6SM SCT025 OVC045
     FM260300 32005KT P6SM BKN025 OVC035=



000
FTUS46 KPQR 250534
TAFTTD
TAF
KTTD 250534Z 2506/2606 26005KT P6SM SCT045 BKN200
     FM251000 27004KT P6SM BKN025 OVC045
     FM251900 28004KT P6SM SCT025 OVC035
     FM260400 VRB03KT P6SM BKN025 OVC035=



000
FTUS46 KPQR 250534
TAFSLE
TAF
KSLE 250534Z 2506/2606 28006KT P6SM BKN200
     FM251100 18004KT P6SM BKN025 OVC050
     FM251800 20004KT P6SM SCT025 OVC040
     FM260400 VRB04KT P6SM BKN025 OVC035=



000
FTUS46 KPQR 250534
TAFAST
TAF
KAST 250534Z 2506/2606 29007KT P6SM BKN018 OVC030
     FM250800 27004KT 6SM -DZ BR BKN015 OVC025
     FM251400 25003KT P6SM OVC021
     FM251800 28005KT P6SM BKN025 OVC035
     FM260300 24005KT P6SM OVC022=



000
FTUS46 KPQR 250534
TAFSLE
TAF
KSLE 250534Z 2506/2606 28006KT P6SM BKN200
     FM251100 18004KT P6SM BKN025 OVC050
     FM251800 20004KT P6SM SCT025 OVC040
     FM260400 VRB04KT P6SM BKN025 OVC035=



000
FTUS46 KPQR 250534
TAFTTD
TAF
KTTD 250534Z 2506/2606 26005KT P6SM SCT045 BKN200
     FM251000 27004KT P6SM BKN025 OVC045
     FM251900 28004KT P6SM SCT025 OVC035
     FM260400 VRB03KT P6SM BKN025 OVC035=



000
FTUS46 KPQR 250534
TAFPDX
TAF
KPDX 250534Z 2506/2606 31005KT P6SM SCT140 OVC250
     FM250700 29005KT P6SM SCT040 BKN140
     FM250900 27004KT P6SM BKN025 OVC050
     FM251900 27005KT P6SM SCT025 OVC035
     FM260400 25005KT P6SM BKN025 OVC035=



000
FTUS46 KPQR 250534
TAFONP
TAF
KONP 250534Z 2506/2606 36006KT P6SM SCT022 OVC200
      TEMPO 2506/2508 BKN022 OVC200
     FM250800 34005KT P6SM OVC022
     FM251200 34003KT 6SM BR BKN015 OVC025
     FM251900 34007KT P6SM SCT015 OVC025=



000
FTUS46 KPQR 250257 AAA
TAFPDX
TAF AMD
KPDX 250257Z 2503/2524 31005KT P6SM SCT140 OVC250
     FM250700 29005KT P6SM SCT040 BKN140
     FM250900 27004KT P6SM BKN025 OVC050
     FM251900 27005KT P6SM SCT025 OVC035=



000
FTUS46 KPQR 250257 AAA
TAFPDX
TAF AMD
KPDX 250257Z 2503/2524 31005KT P6SM SCT140 OVC250
     FM250700 29005KT P6SM SCT040 BKN140
     FM250900 27004KT P6SM BKN025 OVC050
     FM251900 27005KT P6SM SCT025 OVC035=



000
FTUS46 KPQR 250257 AAA
TAFPDX
TAF AMD
KPDX 250257Z 2503/2524 31005KT P6SM SCT140 OVC250
     FM250700 29005KT P6SM SCT040 BKN140
     FM250900 27004KT P6SM BKN025 OVC050
     FM251900 27005KT P6SM SCT025 OVC035=



000
FTUS46 KPQR 250257 AAA
TAFPDX
TAF AMD
KPDX 250257Z 2503/2524 31005KT P6SM SCT140 OVC250
     FM250700 29005KT P6SM SCT040 BKN140
     FM250900 27004KT P6SM BKN025 OVC050
     FM251900 27005KT P6SM SCT025 OVC035=



000
FTUS46 KPQR 242333
TAFONP
TAF
KONP 242333Z 2500/2524 33009KT P6SM SCT250
     FM250400 30006KT P6SM SCT015 BKN200
     FM250900 32004KT P6SM OVC035
     FM251500 34003KT P6SM OVC020
     FM251800 31005KT 6SM BR SCT010 OVC020=



000
FTUS46 KPQR 242333
TAFHIO
TAF
KHIO 242333Z 2500/2524 33004KT P6SM SCT250
     FM250700 30005KT P6SM BKN050
     FM251000 30004KT P6SM BKN020 OVC050
     FM251700 27003KT 6SM BR OVC015=



000
FTUS46 KPQR 242333
TAFAST
TAF
KAST 242333Z 2500/2524 28008KT P6SM BKN025
     FM250600 28009KT P6SM OVC020
     FM250800 27004KT P6SM -DZ SCT010 OVC015
     FM251400 25003KT P6SM OVC020
     FM251800 30005KT 6SM BR SCT010 OVC020=



000
FTUS46 KPQR 242333
TAFSLE
TAF
KSLE 242333Z 2500/2524 30005KT P6SM SCT250
     FM251000 27004KT P6SM SCT025 BKN050
     FM251300 00000KT P6SM SCT020 OVC050
     FM251800 27005KT P6SM OVC050=



000
FTUS46 KPQR 242333
TAFONP
TAF
KONP 242333Z 2500/2524 33009KT P6SM SCT250
     FM250400 30006KT P6SM SCT015 BKN200
     FM250900 32004KT P6SM OVC035
     FM251500 34003KT P6SM OVC020
     FM251800 31005KT 6SM BR SCT010 OVC020=



000
FTUS46 KPQR 242333
TAFAST
TAF
KAST 242333Z 2500/2524 28008KT P6SM BKN025
     FM250600 28009KT P6SM OVC020
     FM250800 27004KT P6SM -DZ SCT010 OVC015
     FM251400 25003KT P6SM OVC020
     FM251800 30005KT 6SM BR SCT010 OVC020=



000
FTUS46 KPQR 242333
TAFTTD
TAF
KTTD 242333Z 2500/2524 26005KT P6SM SCT250
     FM250700 27005KT P6SM BKN050
     FM251100 00000KT P6SM SCT025 OVC050
     FM251800 27004KT P6SM OVC050=



000
FTUS46 KPQR 242333
TAFPDX
TAF
KPDX 242333Z 2500/2524 33004KT P6SM SCT250
     FM250700 27005KT P6SM BKN050
     FM251000 27004KT P6SM BKN025 OVC050
     FM251700 27005KT P6SM BKN025=



000
FTUS46 KPQR 242333
TAFEUG
TAF
KEUG 242333Z 2500/2524 30005KT P6SM SCT250
     FM251000 27004KT P6SM SCT025 BKN050
     FM251300 00000KT 6SM BR OVC020
     FM252100 32007KT P6SM OVC050=



000
FTUS46 KPQR 242333
TAFPDX
TAF
KPDX 242333Z 2500/2524 33004KT P6SM SCT250
     FM250700 27005KT P6SM BKN050
     FM251000 27004KT P6SM BKN025 OVC050
     FM251700 27005KT P6SM BKN025=



    US Dept of Commerce
    National Oceanic and Atmospheric Administration
    National Weather Service
    1325 East West Highway
    Silver Spring, MD 20910
    Page Author: NWS Internet Services Team
Disclaimer
Information Quality
Credits
Glossary
Privacy Policy
Freedom of Information Act (FOIA)
About Us
Career Opportunities